Provisional Data: Susquehanna River near Binghamton, NY


Please select a monitoring station.
Please select start date.
Please select start date.

Toggle Unit: C/F Toggle Unit: C/F
Sample Time Temperature (C) Temperature (F) Specific Conductivity (mS/cm) pH   Turbidity (NTU+) DO (mg/L)
3/23/2021 12:00:00 AM 7.1643 1.5904
3/23/2021 12:15:00 AM 7.1658 1.5504
3/23/2021 12:30:00 AM 7.1691 1.506
3/23/2021 12:45:00 AM 7.169 1.4831
3/23/2021 1:00:00 AM 7.1698 1.442
3/23/2021 1:15:00 AM 7.1685 1.5141
3/23/2021 1:30:00 AM 7.1681 1.4955
3/23/2021 1:45:00 AM 7.1672 1.4757
3/23/2021 2:00:00 AM 7.1647 1.5391
3/23/2021 2:15:00 AM 7.1677 1.4918
3/23/2021 2:30:00 AM 7.1669 1.4296
3/23/2021 2:45:00 AM 7.1624 1.5
3/23/2021 3:00:00 AM 7.1729 1.4491
3/23/2021 3:15:00 AM 7.18 1.4488
3/23/2021 3:30:00 AM 7.1846 1.4257
3/23/2021 3:45:00 AM 7.1887 1.424
3/23/2021 4:00:00 AM 7.1927 1.4986
3/23/2021 4:15:00 AM 7.1935 1.5424
3/23/2021 4:30:00 AM 7.193 1.541
3/23/2021 4:45:00 AM 7.1906 1.5385
3/23/2021 5:00:00 AM 7.1894 1.5442
3/23/2021 5:15:00 AM 7.1888 1.5007
3/23/2021 5:30:00 AM 7.1889 1.5091
3/23/2021 5:45:00 AM 7.182 1.5001
3/23/2021 6:00:00 AM 7.1375 2.5394
3/23/2021 6:15:00 AM 7.167 1.6098
3/23/2021 6:30:00 AM 7.1629 1.4356
3/23/2021 6:45:00 AM 7.1541 1.4434
3/23/2021 7:00:00 AM 7.1548 1.4505
3/23/2021 7:15:00 AM 7.159 1.4497
3/23/2021 7:30:00 AM 7.1592 1.4276
3/23/2021 7:45:00 AM 7.1599 1.3804
3/23/2021 8:00:00 AM 7.1636 1.3987
3/23/2021 8:15:00 AM 7.1614 1.438
3/23/2021 8:30:00 AM 7.1612 1.5226
3/23/2021 8:45:00 AM 7.161 1.4
3/23/2021 9:00:00 AM 7.1577 1.4773
3/23/2021 9:15:00 AM 7.1627 1.4133
3/23/2021 9:30:00 AM 7.1696 1.3335
3/23/2021 9:45:00 AM 7.1741 1.3545
3/23/2021 10:00:00 AM 7.1793 1.3586
3/23/2021 10:15:00 AM 7.1838 1.2745
3/23/2021 10:30:00 AM 7.1822 1.271
3/23/2021 10:45:00 AM 7.185 1.2553
3/23/2021 11:00:00 AM 7.1795 1.2496
3/23/2021 11:15:00 AM 7.18 1.2262
3/23/2021 11:30:00 AM 7.1733 1.1967
3/23/2021 11:45:00 AM 7.1596 1.2
3/23/2021 12:00:00 PM 7.1428 1.3296
3/23/2021 12:15:00 PM 7.1402 1.5412
3/23/2021 12:30:00 PM 7.1394 1.4717
3/23/2021 12:45:00 PM 7.1442 1.4263
3/23/2021 1:00:00 PM 7.1539 1.4499
3/23/2021 1:15:00 PM 7.165 1.4357
3/23/2021 1:30:00 PM 7.1638 1.5525
3/23/2021 1:45:00 PM 7.1487 1.4667
3/23/2021 2:00:00 PM 7.1447 1.3896
3/23/2021 2:15:00 PM 7.145 1.2982
3/23/2021 2:30:00 PM 7.146 1.2338
3/23/2021 2:45:00 PM 7.1486 1.2432
3/23/2021 3:00:00 PM 7.1545 1.2446
3/23/2021 3:15:00 PM 7.1667 1.2656
3/23/2021 3:30:00 PM 7.1827 1.2306
3/23/2021 3:45:00 PM 7.1849 1.2347
3/23/2021 4:00:00 PM 7.1696 1.2396
3/23/2021 4:15:00 PM 7.1641 1.2668
3/23/2021 4:30:00 PM 7.162 1.2502
3/23/2021 4:45:00 PM 7.1639 1.237
3/23/2021 5:00:00 PM 7.1659 1.1715
3/23/2021 5:15:00 PM 7.1735 1.2023
3/23/2021 5:30:00 PM 7.1864 1.1495
3/23/2021 5:45:00 PM 7.196 1.1999
3/23/2021 6:00:00 PM 7.1764 1.1802
3/23/2021 6:15:00 PM 7.1728 1.1781
3/23/2021 6:30:00 PM 7.1714 1.1504
3/23/2021 6:45:00 PM 7.1702 1.1714
3/23/2021 7:00:00 PM 7.1698 1.1822
3/23/2021 7:15:00 PM 7.1775 1.212
3/23/2021 7:30:00 PM 7.1869 1.4093
3/23/2021 7:45:00 PM 7.1794 1.4985
3/23/2021 8:00:00 PM 7.1637 1.4301
3/23/2021 8:15:00 PM 7.1575 1.3739
3/23/2021 8:30:00 PM 7.1524 1.4146
3/23/2021 8:45:00 PM 7.1512 1.4001
3/23/2021 9:00:00 PM 7.1494 1.4257
3/23/2021 9:15:00 PM 7.1554 1.3352
3/23/2021 9:30:00 PM 7.1636 1.3244
3/23/2021 9:45:00 PM 7.1578 1.3373
3/23/2021 10:00:00 PM 7.1491 1.3473
3/23/2021 10:15:00 PM 7.1457 1.3314
3/23/2021 10:30:00 PM 7.1397 1.3376
3/23/2021 10:45:00 PM 7.136 1.3359
3/23/2021 11:00:00 PM 7.1375 1.3337
3/23/2021 11:15:00 PM 7.1438 1.4289
3/23/2021 11:30:00 PM 7.1497 1.6657
3/23/2021 11:45:00 PM 7.1554 2.2
3/24/2021 12:00:00 AM 7.1416 1.5871
3/24/2021 12:15:00 AM 7.1335 1.6718
3/24/2021 12:30:00 AM 7.1337 1.6947
3/24/2021 12:45:00 AM 7.1364 1.5329
3/24/2021 1:00:00 AM 7.1356 1.4686
3/24/2021 1:15:00 AM 7.1392 1.544
3/24/2021 1:30:00 AM 7.1464 1.5221
3/24/2021 1:45:00 AM 7.1516 1.4714
3/24/2021 2:00:00 AM 7.1401 1.547
3/24/2021 2:15:00 AM 7.1394 1.4241
3/24/2021 2:30:00 AM 7.1355 1.4479
3/24/2021 2:45:00 AM 7.1358 1.4001
3/24/2021 3:00:00 AM 7.1344 1.4009
3/24/2021 3:15:00 AM 7.1385 1.4467
3/24/2021 3:30:00 AM 7.1458 1.4312
3/24/2021 3:45:00 AM 7.1557 1.4374
3/24/2021 4:00:00 AM 7.145 1.4372
3/24/2021 4:15:00 AM 7.1389 1.4358
3/24/2021 4:30:00 AM 7.1353 1.4564
3/24/2021 4:45:00 AM 7.127 1.5568
3/24/2021 5:00:00 AM 7.0879 1.5809
3/24/2021 5:15:00 AM 7.1221 1.478
3/24/2021 5:30:00 AM 7.1402 1.4577
3/24/2021 5:45:00 AM 7.1498 1.3998
3/24/2021 6:00:00 AM 7.148 1.3332
3/24/2021 6:15:00 AM 7.1387 1.3495
3/24/2021 6:30:00 AM 7.1354 1.3524
3/24/2021 6:45:00 AM 7.1346 1.3483
3/24/2021 7:00:00 AM 7.1333 1.3344
3/24/2021 7:15:00 AM 7.1308 1.3327
3/24/2021 7:30:00 AM 7.131 1.3475
3/24/2021 7:45:00 AM 7.1321 1.3073
3/24/2021 8:00:00 AM 7.1305 1.2552
3/24/2021 8:15:00 AM 7.1291 1.2404
3/24/2021 8:30:00 AM 7.1253 1.2114
3/24/2021 8:45:00 AM 7.1232 1.2999
3/24/2021 9:00:00 AM 7.1287 1.2246
3/24/2021 9:15:00 AM 7.1282 1.2397
3/24/2021 9:30:00 AM 7.1286 1.4742
3/24/2021 9:45:00 AM 7.1283 1.7795
3/24/2021 10:00:00 AM 7.124 2.686
3/24/2021 10:15:00 AM 7.1288 1.4707
3/24/2021 10:30:00 AM 7.1304 1.3428
3/24/2021 10:45:00 AM 7.1319 1.2515
3/24/2021 11:00:00 AM 7.1318 1.2413
3/24/2021 11:15:00 AM 7.1328 1.23
3/24/2021 11:30:00 AM 7.1354 1.2309
3/24/2021 11:45:00 AM 7.1372 1.2996
3/24/2021 12:00:00 PM 7.1394 1.2262
3/24/2021 12:15:00 PM 7.1469 1.2554
3/24/2021 12:30:00 PM 7.162 1.3465
3/24/2021 12:45:00 PM 7.1716 1.3522
3/24/2021 1:00:00 PM 7.1579 1.34
3/24/2021 1:15:00 PM 7.1536 1.3712
3/24/2021 1:30:00 PM 7.1546 1.3563
3/24/2021 1:45:00 PM 7.1546 1.3655
3/24/2021 2:00:00 PM 7.1538 1.3404
3/24/2021 2:15:00 PM 7.1544 1.3343
3/24/2021 2:30:00 PM 7.1557 1.3711
3/24/2021 2:45:00 PM 7.158 1.4265
3/24/2021 3:00:00 PM 7.1591 1.4569
3/24/2021 3:15:00 PM 7.1629 1.5508
3/24/2021 3:30:00 PM 7.1645 1.545
3/24/2021 3:45:00 PM 7.1642 1.6471
3/24/2021 4:00:00 PM 7.1646 1.6569
3/24/2021 4:15:00 PM 7.165 1.7385
3/24/2021 4:30:00 PM 7.1645 1.8243
3/24/2021 4:45:00 PM 7.1631 1.8473
3/24/2021 5:00:00 PM 7.1624 1.8338
3/24/2021 5:15:00 PM 7.1622 1.8801
3/24/2021 5:30:00 PM 7.1595 1.9313
3/24/2021 5:45:00 PM 7.1666 1.9996
3/24/2021 6:00:00 PM 7.163 1.9399
3/24/2021 6:15:00 PM 7.1632 1.9278
3/24/2021 6:30:00 PM 7.1638 1.8903
3/24/2021 6:45:00 PM 7.1633 1.9225
3/24/2021 7:00:00 PM 7.1624 1.8958
3/24/2021 7:15:00 PM 7.1649 1.9433
3/24/2021 7:30:00 PM 7.1705 1.9425
3/24/2021 7:45:00 PM 7.1855 1.9403
3/24/2021 8:00:00 PM 7.1763 1.9129
3/24/2021 8:15:00 PM 7.1596 2.1758
3/24/2021 8:30:00 PM 7.1493 2.1493
3/24/2021 8:45:00 PM 7.1456 2.1999
3/24/2021 9:00:00 PM 7.1372 2.1718
3/24/2021 9:15:00 PM 7.1351 2.2236
3/24/2021 9:30:00 PM 7.1336 2.2448
3/24/2021 9:45:00 PM 7.1306 2.2449
3/24/2021 10:00:00 PM 7.1303 2.2308
3/24/2021 10:15:00 PM 7.1282 2.2505
3/24/2021 10:30:00 PM 7.1271 2.1965
3/24/2021 10:45:00 PM 7.1299 2.1779
3/24/2021 11:00:00 PM 7.1278 2.1606
3/24/2021 11:15:00 PM 7.127 2.2564
3/24/2021 11:30:00 PM 7.1246 2.2298
3/24/2021 11:45:00 PM 7.1274 2.2
3/25/2021 12:00:00 AM 7.1215 2.3056
3/25/2021 12:15:00 AM 7.1179 2.3169
3/25/2021 12:30:00 AM 7.1184 2.3428
3/25/2021 12:45:00 AM 7.1166 2.3274
3/25/2021 1:00:00 AM 7.1153 2.3364
3/25/2021 1:15:00 AM 7.1156 2.4165
3/25/2021 1:30:00 AM 7.1126 2.425
3/25/2021 1:45:00 AM 7.1103 2.4358
3/25/2021 2:00:00 AM 7.107 2.4487
3/25/2021 2:15:00 AM 7.1065 2.4603
3/25/2021 2:30:00 AM 7.1065 2.4713
3/25/2021 2:45:00 AM 7.1036 2.4999
3/25/2021 3:00:00 AM 7.105 2.5526
3/25/2021 3:15:00 AM 7.102 2.5558
3/25/2021 3:30:00 AM 7.1018 2.5448
3/25/2021 3:45:00 AM 7.1017 2.5511
3/25/2021 4:00:00 AM 7.1023 2.4575
3/25/2021 4:15:00 AM 7.1014 2.4357
3/25/2021 4:30:00 AM 7.1009 2.442
3/25/2021 4:45:00 AM 7.0906 2.4984
3/25/2021 5:00:00 AM 7.0791 2.4754
3/25/2021 5:15:00 AM 7.0922 2.3572
3/25/2021 5:30:00 AM 7.0971 2.3354
3/25/2021 5:45:00 AM 7.0938 2.4
3/25/2021 6:00:00 AM 7.0999 2.3966
3/25/2021 6:15:00 AM 7.1138 2.3445
3/25/2021 6:30:00 AM 7.1126 2.2427
3/25/2021 6:45:00 AM 7.103 2.1725
3/25/2021 7:00:00 AM 7.0972 2.2104
3/25/2021 7:15:00 AM 7.0931 2.203
3/25/2021 7:30:00 AM 7.0914 2.1394
3/25/2021 7:45:00 AM 7.0915 2.1071
3/25/2021 8:00:00 AM 7.089 2.0354
3/25/2021 8:15:00 AM 7.0888 2.0532
3/25/2021 8:30:00 AM 7.0917 2.028
3/25/2021 8:45:00 AM 7.0896 1.9999
3/25/2021 9:00:00 AM 7.0918 1.9808
3/25/2021 9:15:00 AM 7.0918 1.9733
3/25/2021 9:30:00 AM 7.0932 1.9637
3/25/2021 9:45:00 AM 7.0932 1.9442
3/25/2021 10:00:00 AM 7.095 1.8825
3/25/2021 10:15:00 AM 7.0983 1.8176
3/25/2021 10:30:00 AM 7.1102 1.8304
3/25/2021 10:45:00 AM 7.1246 1.8601
3/25/2021 11:00:00 AM 7.1102 1.8582
3/25/2021 11:15:00 AM 7.1046 1.8437
3/25/2021 11:30:00 AM 7.1024 1.7839
3/25/2021 11:45:00 AM 7.1078 1.7998
3/25/2021 12:00:00 PM 7.1358 1.7374
3/25/2021 12:15:00 PM 7.1171 1.7309
3/25/2021 12:30:00 PM 7.1076 1.727
3/25/2021 12:45:00 PM 7.1053 1.7187
3/25/2021 1:00:00 PM 7.1066 1.7269
3/25/2021 1:15:00 PM 7.1242 1.731
3/25/2021 1:30:00 PM 7.1168 1.7297
3/25/2021 1:45:00 PM 7.1081 1.7342
3/25/2021 2:00:00 PM 7.1063 1.7336
3/25/2021 2:15:00 PM 7.1126 1.7546
3/25/2021 2:30:00 PM 7.1312 1.8248
3/25/2021 2:45:00 PM 7.119 1.8499
3/25/2021 3:00:00 PM 7.1121 1.8617
3/25/2021 3:15:00 PM 7.1125 1.8263
3/25/2021 3:30:00 PM 7.1283 1.8887
3/25/2021 3:45:00 PM 7.1243 1.9424
3/25/2021 4:00:00 PM 7.1163 1.9938
3/25/2021 4:15:00 PM 7.115 2.0291
3/25/2021 4:30:00 PM 7.1231 1.9404
3/25/2021 4:45:00 PM 7.1317 1.9318
3/25/2021 5:00:00 PM 7.1234 1.9453
3/25/2021 5:15:00 PM 7.1171 1.8664
3/25/2021 5:30:00 PM 7.1194 1.8261
3/25/2021 5:45:00 PM 7.1274 1.8001
3/25/2021 6:00:00 PM 7.1274 1.8966
3/25/2021 6:15:00 PM 7.1182 1.9526
3/25/2021 6:30:00 PM 7.1155 1.8994
3/25/2021 6:45:00 PM 7.1215 1.831
3/25/2021 7:00:00 PM 7.1235 1.7884
3/25/2021 7:15:00 PM 7.1164 1.7209
3/25/2021 7:30:00 PM 7.1102 1.7262
3/25/2021 7:45:00 PM 7.1124 1.7345
3/25/2021 8:00:00 PM 7.1186 1.6864
3/25/2021 8:15:00 PM 7.111 1.7008
3/25/2021 8:30:00 PM 7.1049 1.7596
3/25/2021 8:45:00 PM 7.1036 1.8002
3/25/2021 9:00:00 PM 7.1075 1.7248
3/25/2021 9:15:00 PM 7.1035 1.748
3/25/2021 9:30:00 PM 7.0971 1.7374
3/25/2021 9:45:00 PM 7.0918 1.7466
3/25/2021 10:00:00 PM 7.0973 1.7434
3/25/2021 10:15:00 PM 7.0939 2.0607
3/25/2021 10:30:00 PM 7.0835 2.0453
3/25/2021 10:45:00 PM 7.0764 1.9517
3/25/2021 11:00:00 PM 7.0765 1.9371
3/25/2021 11:15:00 PM 7.0845 1.9342
3/25/2021 11:30:00 PM 7.0788 1.9501
3/25/2021 11:45:00 PM 7.0784 1.9001
3/26/2021 12:00:00 AM 7.0744 1.9417
3/26/2021 12:15:00 AM 7.0804 1.9469
3/26/2021 12:30:00 AM 7.0775 1.9557
3/26/2021 12:45:00 AM 7.0713 1.951
3/26/2021 1:00:00 AM 7.0706 1.9555
3/26/2021 1:15:00 AM 7.0766 1.9448
3/26/2021 1:30:00 AM 7.0755 1.9352
3/26/2021 1:45:00 AM 7.0715 1.9719
3/26/2021 2:00:00 AM 7.0666 2.0185
3/26/2021 2:15:00 AM 7.0686 2.0209
3/26/2021 2:30:00 AM 7.0747 2.0874
3/26/2021 2:45:00 AM 7.0686 2.1002
3/26/2021 3:00:00 AM 7.062 2.0444
3/26/2021 3:15:00 AM 7.0594 1.9961
3/26/2021 3:30:00 AM 7.0671 1.9627
3/26/2021 3:45:00 AM 7.067 2.0192
3/26/2021 4:00:00 AM 7.0601 1.9915
3/26/2021 4:15:00 AM 7.0548 2.0291
3/26/2021 4:30:00 AM 7.0581 2.0471
3/26/2021 4:45:00 AM 7.063 2.0338
3/26/2021 5:00:00 AM 7.0558 2.0509
3/26/2021 5:15:00 AM 7.0514 2.0857
3/26/2021 5:30:00 AM 7.0492 2.0391
3/26/2021 5:45:00 AM 7.0518 2.0002
3/26/2021 6:00:00 AM 7.0472 1.9898
3/26/2021 6:15:00 AM 7.0484 1.9274
3/26/2021 6:30:00 AM 7.0479 1.9367
3/26/2021 6:45:00 AM 7.0484 1.9581
3/26/2021 7:00:00 AM 7.0462 1.9622
3/26/2021 7:15:00 AM 7.043 1.9404
3/26/2021 7:30:00 AM 7.0418 1.9594
3/26/2021 7:45:00 AM 7.0392 1.9241
3/26/2021 8:00:00 AM 7.0389 1.8823
3/26/2021 8:15:00 AM 7.0344 1.8779
3/26/2021 8:30:00 AM 7.034 1.8461
3/26/2021 8:45:00 AM 7.035 1.8999
3/26/2021 9:00:00 AM 7.0353 1.8297
3/26/2021 9:15:00 AM 7.0343 1.8477
3/26/2021 9:30:00 AM 7.0358 1.8555
3/26/2021 9:45:00 AM 7.0383 1.9372
3/26/2021 10:00:00 AM 7.0387 2.0871
3/26/2021 10:15:00 AM 7.0389 3.3088
3/26/2021 10:30:00 AM 7.0348 4.267
3/26/2021 10:45:00 AM 7.0342 4.9972
3/26/2021 11:00:00 AM 7.0299 5.9965
3/26/2021 11:15:00 AM 7.0253 6.7176
3/26/2021 11:30:00 AM 7.0259 6.3848
3/26/2021 11:45:00 AM 7.0266 6
3/26/2021 12:00:00 PM 7.0376 5.1683
3/26/2021 12:15:00 PM 7.0423 4.8637
3/26/2021 12:30:00 PM 7.0475 4.3547
3/26/2021 12:45:00 PM 7.0538 3.9042
3/26/2021 1:00:00 PM 7.0529 4.6501
3/26/2021 1:15:00 PM 7.0517 5.7916
3/26/2021 1:30:00 PM 7.0522 5.896
3/26/2021 1:45:00 PM 7.0546 5.3414
3/26/2021 2:00:00 PM 7.0593 5.0358
3/26/2021 2:15:00 PM 7.0624 5.0944
3/26/2021 2:30:00 PM 7.0628 5.3182
3/26/2021 2:45:00 PM 7.0623 5.4855
3/26/2021 3:00:00 PM 7.0648 5.2683
3/26/2021 3:15:00 PM 7.0697 5.1157
3/26/2021 3:30:00 PM 7.0743 4.8291
3/26/2021 3:45:00 PM 7.0768 4.5399
3/26/2021 4:00:00 PM 7.0823 4.3155
3/26/2021 4:15:00 PM 7.0825 4.4267
3/26/2021 4:30:00 PM 7.0826 4.2584
3/26/2021 4:45:00 PM 7.0817 4.1989
3/26/2021 5:00:00 PM 7.0833 4.3178
3/26/2021 5:15:00 PM 7.0819 4.5889
3/26/2021 5:30:00 PM 7.0827 4.5802
3/26/2021 5:45:00 PM 7.0826 4.4999
3/26/2021 6:00:00 PM 7.0879 4.3175
3/26/2021 6:15:00 PM 7.0875 3.9334
3/26/2021 6:30:00 PM 7.0873 3.5429
3/26/2021 6:45:00 PM 7.0904 3.111
3/26/2021 7:00:00 PM 7.0919 2.7712
3/26/2021 7:15:00 PM 7.0922 2.4964
3/26/2021 7:30:00 PM 7.0903 2.2667
3/26/2021 7:45:00 PM 7.087 2.1684
3/26/2021 8:00:00 PM 7.087 2.11
3/26/2021 8:15:00 PM 7.0843 2.0275
3/26/2021 8:30:00 PM 7.0806 2.0517
3/26/2021 8:45:00 PM 7.0798 2.1
3/26/2021 9:00:00 PM 7.076 1.9572
3/26/2021 9:15:00 PM 7.0735 1.9844
3/26/2021 9:30:00 PM 7.0731 1.9707
3/26/2021 9:45:00 PM 7.0723 1.9459
3/26/2021 10:00:00 PM 7.0718 1.9387
3/26/2021 10:15:00 PM 7.0587 3.099
3/26/2021 10:30:00 PM 7.0536 3.1081
3/26/2021 10:45:00 PM 7.055 2.6137
3/26/2021 11:00:00 PM 7.0566 2.5271
3/26/2021 11:15:00 PM 7.058 2.4667
3/26/2021 11:30:00 PM 7.0586 2.3725
3/26/2021 11:45:00 PM 7.0602 2.4
3/27/2021 12:00:00 AM 7.059 2.2575
3/27/2021 12:15:00 AM 7.0585 2.2234
3/27/2021 12:30:00 AM 7.0589 2.1871
3/27/2021 12:45:00 AM 7.0585 2.1927
3/27/2021 1:00:00 AM 7.0582 2.1536
3/27/2021 1:15:00 AM 7.0584 2.1714
3/27/2021 1:30:00 AM 7.0581 2.1589
3/27/2021 1:45:00 AM 7.0586 2.1512
3/27/2021 2:00:00 AM 7.0551 2.1464
3/27/2021 2:15:00 AM 7.0539 2.1438
3/27/2021 2:30:00 AM 7.0532 2.1432
3/27/2021 2:45:00 AM 7.056 2.3999
3/27/2021 3:00:00 AM 7.0566 2.1299
3/27/2021 3:15:00 AM 7.0515 1.9267
3/27/2021 3:30:00 AM 7.051 1.942
3/27/2021 3:45:00 AM 7.0492 1.9334
3/27/2021 4:00:00 AM 7.0493 1.9317
3/27/2021 4:15:00 AM 7.0486 1.9256
3/27/2021 4:30:00 AM 7.0445 1.9683
3/27/2021 4:45:00 AM 7.0426 2.0009
3/27/2021 5:00:00 AM 7.0408 1.9516
3/27/2021 5:15:00 AM 7.041 1.953
3/27/2021 5:30:00 AM 7.0385 1.9348
3/27/2021 5:45:00 AM 7.0364 1.9999
3/27/2021 6:00:00 AM 7.0299 1.9492
3/27/2021 6:15:00 AM 7.0429 1.8413
3/27/2021 6:30:00 AM 7.0445 1.8424
3/27/2021 6:45:00 AM 7.0444 1.8526
3/27/2021 7:00:00 AM 7.0441 1.8217
3/27/2021 7:15:00 AM 7.0436 1.7664
3/27/2021 7:30:00 AM 7.044 1.7442
3/27/2021 7:45:00 AM 7.0388 1.7345
3/27/2021 8:00:00 AM 7.0414 1.7524
3/27/2021 8:15:00 AM 7.0405 1.7436
3/27/2021 8:30:00 AM 7.0405 1.6724
3/27/2021 8:45:00 AM 7.0406 1.7003
3/27/2021 9:00:00 AM 7.039 1.6377
3/27/2021 9:15:00 AM 7.0404 1.6227
3/27/2021 9:30:00 AM 7.0396 1.7581
3/27/2021 9:45:00 AM 7.0432 1.736
3/27/2021 10:00:00 AM 7.0438 1.6472
3/27/2021 10:15:00 AM 7.0445 1.6172
3/27/2021 10:30:00 AM 7.0436 1.5726
3/27/2021 10:45:00 AM 7.0438 1.5345
3/27/2021 11:00:00 AM 7.0481 1.5318
3/27/2021 11:15:00 AM 7.0479 1.5445
3/27/2021 11:30:00 AM 7.0523 1.5366
3/27/2021 11:45:00 AM 7.0546 1.5999
3/27/2021 12:00:00 PM 7.0533 1.559
3/27/2021 12:15:00 PM 7.0545 1.5173
3/27/2021 12:30:00 PM 7.0567 1.4874
3/27/2021 12:45:00 PM 7.0575 1.4637
3/27/2021 1:00:00 PM 7.0578 1.4743
3/27/2021 1:15:00 PM 7.0583 1.4431
3/27/2021 1:30:00 PM 7.0592 1.4694
3/27/2021 1:45:00 PM 7.0614 1.4766
3/27/2021 2:00:00 PM 7.0627 1.4487
3/27/2021 2:15:00 PM 7.0634 1.4239
3/27/2021 2:30:00 PM 7.066 1.476
3/27/2021 2:45:00 PM 7.0672 1.4299
3/27/2021 3:00:00 PM 7.0684 1.4883
3/27/2021 3:15:00 PM 7.0685 1.4925
3/27/2021 3:30:00 PM 7.0719 1.4683
3/27/2021 3:45:00 PM 7.0747 1.4848
3/27/2021 4:00:00 PM 7.0769 1.5167
3/27/2021 4:15:00 PM 7.0791 1.5444
3/27/2021 4:30:00 PM 7.0818 1.4567
3/27/2021 4:45:00 PM 7.0821 1.7402
3/27/2021 5:00:00 PM 7.0825 1.7003
3/27/2021 5:15:00 PM 7.0836 1.6128
3/27/2021 5:30:00 PM 7.0861 1.5403
3/27/2021 5:45:00 PM 7.0896 1.6
3/27/2021 6:00:00 PM 7.0907 1.5261
3/27/2021 6:15:00 PM 7.0918 1.532
3/27/2021 6:30:00 PM 7.0908 1.5036
3/27/2021 6:45:00 PM 7.089 1.4384
3/27/2021 7:00:00 PM 7.0878 1.4485
3/27/2021 7:15:00 PM 7.0876 1.4354
3/27/2021 7:30:00 PM 7.0872 1.4406
3/27/2021 7:45:00 PM 7.0836 1.4945
3/27/2021 8:00:00 PM 7.0802 1.5467
3/27/2021 8:15:00 PM 7.0758 1.5436
3/27/2021 8:30:00 PM 7.0729 1.5336
3/27/2021 8:45:00 PM 7.0658 1.5
3/27/2021 9:00:00 PM 7.0585 1.9098
3/27/2021 9:15:00 PM 7.0451 2.043
3/27/2021 9:30:00 PM 7.0451 1.9445
3/27/2021 9:45:00 PM 7.0432 1.8441
3/27/2021 10:00:00 PM 7.0425 1.8087
3/27/2021 10:15:00 PM 7.0399 1.7486
3/27/2021 10:30:00 PM 7.0386 1.7952
3/27/2021 10:45:00 PM 7.041 1.8114
3/27/2021 11:00:00 PM 7.0425 1.7488
3/27/2021 11:15:00 PM 7.0392 1.7638
3/27/2021 11:30:00 PM 7.0375 1.728
3/27/2021 11:45:00 PM 7.035 1.7001
3/28/2021 12:00:00 AM 7.0331 1.7447
3/28/2021 12:15:00 AM 7.0337 1.7426
3/28/2021 12:30:00 AM 7.0332 1.7534
3/28/2021 12:45:00 AM 7.0293 1.6947
3/28/2021 1:00:00 AM 7.0292 1.747
3/28/2021 1:15:00 AM 7.0286 1.7423
3/28/2021 1:30:00 AM 7.0291 1.7596
3/28/2021 1:45:00 AM 7.0265 1.8496
3/28/2021 2:00:00 AM 7.0322 1.8199
3/28/2021 2:15:00 AM 7.0314 1.7872
3/28/2021 2:30:00 AM 7.0291 1.7589
3/28/2021 2:45:00 AM 7.0266 1.7
3/28/2021 3:00:00 AM 7.0286 1.7588
3/28/2021 3:15:00 AM 7.0264 1.8328
3/28/2021 3:30:00 AM 7.0261 1.7915
3/28/2021 3:45:00 AM 7.0245 1.7251
3/28/2021 4:00:00 AM 7.0244 1.7468
3/28/2021 4:15:00 AM 7.0239 1.7271
3/28/2021 4:30:00 AM 7.0235 1.7376
3/28/2021 4:45:00 AM 7.0231 1.7344
3/28/2021 5:00:00 AM 6.9923 1.8315
3/28/2021 5:15:00 AM 7.0193 1.6313
3/28/2021 5:30:00 AM 7.0264 1.66
3/28/2021 5:45:00 AM 7.0252 1.6
3/28/2021 6:00:00 AM 7.0291 1.6439
3/28/2021 6:15:00 AM 7.0295 1.6544
3/28/2021 6:30:00 AM 7.0281 1.6532
3/28/2021 6:45:00 AM 7.027 1.6153
3/28/2021 7:00:00 AM 7.0247 1.5789
3/28/2021 7:15:00 AM 7.0245 1.6156
3/28/2021 7:30:00 AM 7.0244 1.5983
3/28/2021 7:45:00 AM 7.0245 1.5708
3/28/2021 8:00:00 AM 7.0225 1.5375
3/28/2021 8:15:00 AM 7.0195 1.5253
3/28/2021 8:30:00 AM 7.0192 1.6532
3/28/2021 8:45:00 AM 7.0168 1.8
3/28/2021 9:00:00 AM 7.0149 1.7923
3/28/2021 9:15:00 AM 7.0149 1.7447
3/28/2021 9:30:00 AM 7.0147 1.6621
3/28/2021 9:45:00 AM 7.0151 1.6421
3/28/2021 10:00:00 AM 7.0164 1.6033
3/28/2021 10:15:00 AM 7.0163 1.5358
3/28/2021 10:30:00 AM 7.0174 1.5288
3/28/2021 10:45:00 AM 7.0183 1.5537
3/28/2021 11:00:00 AM 7.0197 1.5053
3/28/2021 11:15:00 AM 7.0208 1.4767
3/28/2021 11:30:00 AM 7.024 1.4518
3/28/2021 11:45:00 AM 7.0252 1.5
3/28/2021 12:00:00 PM 7.0263 1.4686
3/28/2021 12:15:00 PM 7.0284 1.4295
3/28/2021 12:30:00 PM 7.0308 1.4594
3/28/2021 12:45:00 PM 7.034 1.4448
3/28/2021 1:00:00 PM 7.0337 1.4571
3/28/2021 1:15:00 PM 7.0372 1.5194
3/28/2021 1:30:00 PM 7.0387 1.6018
3/28/2021 1:45:00 PM 7.0397 1.5452
3/28/2021 2:00:00 PM 7.0422 1.6215
3/28/2021 2:15:00 PM 7.0438 1.6006
3/28/2021 2:30:00 PM 7.0466 1.5206
3/28/2021 2:45:00 PM 7.0483 1.4291
3/28/2021 3:00:00 PM 7.0514 1.4706
3/28/2021 3:15:00 PM 7.052 1.7064
3/28/2021 3:30:00 PM 7.053 2.1612
3/28/2021 3:45:00 PM 7.0539 2.1046
3/28/2021 4:00:00 PM 7.0596 1.7682
3/28/2021 4:15:00 PM 7.0624 1.6808
3/28/2021 4:30:00 PM 7.0634 1.8519
3/28/2021 4:45:00 PM 7.0661 2.5511
3/28/2021 5:00:00 PM 7.0629 3.5472
3/28/2021 5:15:00 PM 7.0657 3.0407
3/28/2021 5:30:00 PM 7.0725 2.4208
3/28/2021 5:45:00 PM 7.0784 2.299
3/28/2021 6:00:00 PM 7.085 2.509
3/28/2021 6:15:00 PM 7.0865 2.4929
3/28/2021 6:30:00 PM 7.0868 2.6474
3/28/2021 6:45:00 PM 7.0782 3.7778
3/28/2021 7:00:00 PM 7.07 4.9915
3/28/2021 7:15:00 PM 7.0774 3.0004
3/28/2021 7:30:00 PM 7.0789 2.5401
3/28/2021 7:45:00 PM 7.077 2.3789
3/28/2021 8:00:00 PM 7.0768 2.2861
3/28/2021 8:15:00 PM 7.075 2.3654
3/28/2021 8:30:00 PM 7.0725 2.7052
3/28/2021 8:45:00 PM 7.07 2.9999
3/28/2021 9:00:00 PM 7.0673 3.6288
3/28/2021 9:15:00 PM 7.0617 3.9677
3/28/2021 9:30:00 PM 7.0564 4.2859
3/28/2021 9:45:00 PM 7.0484 4.2264
3/28/2021 10:00:00 PM 7.0397 4.0309
3/28/2021 10:15:00 PM 7.0383 3.8748
3/28/2021 10:30:00 PM 7.0324 4.7018
3/28/2021 10:45:00 PM 7.0297 5.0508
3/28/2021 11:00:00 PM 7.0294 4.8109
3/28/2021 11:15:00 PM 7.033 4.5726
3/28/2021 11:30:00 PM 7.0344 4.5663
3/28/2021 11:45:00 PM 7.0364 4.7998
3/29/2021 12:00:00 AM 7.0354 4.0693
3/29/2021 12:15:00 AM 7.0382 3.5985
3/29/2021 12:30:00 AM 7.038 4.3619
3/29/2021 12:45:00 AM 7.0381 4.612
3/29/2021 1:00:00 AM 7.0386 4.4586
3/29/2021 1:15:00 AM 7.0402 3.9572
3/29/2021 1:30:00 AM 7.0419 3.5036
3/29/2021 1:45:00 AM 7.0409 3.2026
3/29/2021 2:00:00 AM 7.0434 3.0857
3/29/2021 2:15:00 AM 7.0432 3.1326
3/29/2021 2:30:00 AM 7.0469 3.3206
3/29/2021 2:45:00 AM 7.049 3.4998
3/29/2021 3:00:00 AM 7.0441 3.5409
3/29/2021 3:15:00 AM 7.0418 3.6413
3/29/2021 3:30:00 AM 7.039 3.8654
3/29/2021 3:45:00 AM 7.0392 4.2784
3/29/2021 4:00:00 AM 7.0392 4.166
3/29/2021 4:15:00 AM 7.0389 3.8922
3/29/2021 4:30:00 AM 7.04 3.5775
3/29/2021 4:45:00 AM 7.0303 3.5533
3/29/2021 5:00:00 AM 7.0325 3.4727
3/29/2021 5:15:00 AM 7.046 3.5112
3/29/2021 5:30:00 AM 7.0501 3.3073
3/29/2021 5:45:00 AM 7.0504 3.1
3/29/2021 6:00:00 AM 7.0507 2.6912
3/29/2021 6:15:00 AM 7.0533 2.5091
3/29/2021 6:30:00 AM 7.0488 2.4525
3/29/2021 6:45:00 AM 7.0486 2.4492
3/29/2021 7:00:00 AM 7.0482 2.4192
3/29/2021 7:15:00 AM 7.0484 2.3034
3/29/2021 7:30:00 AM 7.0479 2.2294
3/29/2021 7:45:00 AM 7.0443 2.1775
3/29/2021 8:00:00 AM 7.0462 2.1529
3/29/2021 8:15:00 AM 7.046 2.0445
3/29/2021 8:30:00 AM 7.0434 2.0342
3/29/2021 8:45:00 AM 7.0434 2.0004
3/29/2021 9:00:00 AM 7.0442 1.9657
3/29/2021 9:15:00 AM 7.0446 1.9416
3/29/2021 9:30:00 AM 7.0476 1.9357
3/29/2021 9:45:00 AM 7.0481 1.9307
3/29/2021 10:00:00 AM 7.0533 1.8446
3/29/2021 10:15:00 AM 7.0576 1.834
3/29/2021 10:30:00 AM 7.0609 1.7321
3/29/2021 10:45:00 AM 7.0641 1.7051
3/29/2021 11:00:00 AM 7.0682 1.6361
3/29/2021 11:15:00 AM 7.0724 1.659
3/29/2021 11:30:00 AM 7.0757 1.7109
3/29/2021 11:45:00 AM 7.0742 1.8001
3/29/2021 12:00:00 PM 7.0826 1.7786
3/29/2021 12:15:00 PM 7.0892 1.6877
3/29/2021 12:30:00 PM 7.0905 1.6561
3/29/2021 12:45:00 PM 7.0946 1.6151
3/29/2021 1:00:00 PM 7.0972 1.659
3/29/2021 1:15:00 PM 7.1008 1.6929
3/29/2021 1:30:00 PM 7.1021 1.775
3/29/2021 1:45:00 PM 7.1065 1.7408
3/29/2021 2:00:00 PM 7.1103 1.7282
3/29/2021 2:15:00 PM 7.111 1.6572
3/29/2021 2:30:00 PM 7.1136 1.6518
3/29/2021 2:45:00 PM 7.1167 1.5772
3/29/2021 3:00:00 PM 7.1206 1.5264
3/29/2021 3:15:00 PM 7.1253 1.5339
3/29/2021 3:30:00 PM 7.1262 1.5528
3/29/2021 3:45:00 PM 7.1309 1.4926
3/29/2021 4:00:00 PM 7.13 1.44
3/29/2021 4:15:00 PM 7.1331 1.4263
3/29/2021 4:30:00 PM 7.1351 1.4371
3/29/2021 4:45:00 PM 7.1373 1.459
3/29/2021 5:00:00 PM 7.1395 1.4461
3/29/2021 5:15:00 PM 7.1402 1.4486
3/29/2021 5:30:00 PM 7.1404 1.4482
3/29/2021 5:45:00 PM 7.1372 1.4002
3/29/2021 6:00:00 PM 7.1445 1.4269
3/29/2021 6:15:00 PM 7.1446 1.5493
3/29/2021 6:30:00 PM 7.1401 1.6262
3/29/2021 6:45:00 PM 7.1384 1.6957
3/29/2021 7:00:00 PM 7.1344 1.8149
3/29/2021 7:15:00 PM 7.1289 1.8292
3/29/2021 7:30:00 PM 7.1248 1.8304
3/29/2021 7:45:00 PM 7.1205 1.8001
3/29/2021 8:00:00 PM 7.1176 1.7275
3/29/2021 8:15:00 PM 7.1049 2.3034
3/29/2021 8:30:00 PM 7.0969 2.0924
3/29/2021 8:45:00 PM 7.098 1.9
3/29/2021 9:00:00 PM 7.0921 1.8733
3/29/2021 9:15:00 PM 7.088 1.8402
3/29/2021 9:30:00 PM 7.0873 1.7715
3/29/2021 9:45:00 PM 7.0869 1.7328
3/29/2021 10:00:00 PM 7.0856 1.7404
3/29/2021 10:15:00 PM 7.0838 1.7283
3/29/2021 10:30:00 PM 7.0828 1.7043
3/29/2021 10:45:00 PM 7.0824 1.6637
3/29/2021 11:00:00 PM 7.0822 1.6182
3/29/2021 11:15:00 PM 7.0805 1.6415
3/29/2021 11:30:00 PM 7.0812 1.5947
3/29/2021 11:45:00 PM 7.0784 1.6
3/30/2021 12:00:00 AM 7.0822 1.5655
3/30/2021 12:15:00 AM 7.0818 1.5495
3/30/2021 12:30:00 AM 7.0792 1.5648
3/30/2021 12:45:00 AM 7.0777 1.5843
3/30/2021 1:00:00 AM 7.0804 1.5754
3/30/2021 1:15:00 AM 7.0802 1.6166
3/30/2021 1:30:00 AM 7.0784 1.5887
3/30/2021 1:45:00 AM 7.0808 1.6382
3/30/2021 2:00:00 AM 7.0802 1.5611
3/30/2021 2:15:00 AM 7.082 1.5367
3/30/2021 2:30:00 AM 7.0797 1.5305
3/30/2021 2:45:00 AM 7.077 1.5999
3/30/2021 3:00:00 AM 7.0774 1.5315
3/30/2021 3:15:00 AM 7.08 1.736
3/30/2021 3:30:00 AM 7.0777 1.7669
3/30/2021 3:45:00 AM 7.077 1.6978
3/30/2021 4:00:00 AM 7.0767 1.6042
3/30/2021 4:15:00 AM 7.0748 1.5357
3/30/2021 4:30:00 AM 7.0758 1.5289
3/30/2021 4:45:00 AM 7.0709 1.5439
3/30/2021 5:00:00 AM 7.0724 1.5483
3/30/2021 5:15:00 AM 7.0725 1.5967
3/30/2021 5:30:00 AM 7.0723 1.6313
3/30/2021 5:45:00 AM 7.0714 1.5999
3/30/2021 6:00:00 AM 7.0733 2.0338
3/30/2021 6:15:00 AM 7.056 2.3399
3/30/2021 6:30:00 AM 7.0704 1.7287
3/30/2021 6:45:00 AM 7.0796 1.4671
3/30/2021 7:00:00 AM 7.0822 1.4304
3/30/2021 7:15:00 AM 7.0814 1.4418
3/30/2021 7:30:00 AM 7.0818 1.3809
3/30/2021 7:45:00 AM 7.0816 1.3293
3/30/2021 8:00:00 AM 7.0815 1.3427
3/30/2021 8:15:00 AM 7.0821 1.3305
3/30/2021 8:30:00 AM 7.0822 1.3477
3/30/2021 8:45:00 AM 7.0826 1.3998
3/30/2021 9:00:00 AM 7.0841 1.4047
3/30/2021 9:15:00 AM 7.0833 1.5146
3/30/2021 9:30:00 AM 7.0892 1.5588
3/30/2021 9:45:00 AM 7.0867 2.2558
3/30/2021 10:00:00 AM 7.0863 1.5949
3/30/2021 10:15:00 AM 7.0862 1.4469
3/30/2021 10:30:00 AM 7.0866 1.4282
3/30/2021 10:45:00 AM 7.0871 1.426
3/30/2021 11:00:00 AM 7.0873 1.4309
3/30/2021 11:15:00 AM 7.0866 1.4361
3/30/2021 11:30:00 AM 7.0864 1.4398
3/30/2021 11:45:00 AM 7.0882 1.4001
3/30/2021 12:00:00 PM 7.086 1.4437
3/30/2021 12:15:00 PM 7.0866 1.4314
3/30/2021 12:30:00 PM 7.0863 1.4339
3/30/2021 12:45:00 PM 7.0874 1.4296
3/30/2021 1:00:00 PM 7.0916 1.4212
3/30/2021 1:15:00 PM 7.0928 1.4507
3/30/2021 1:30:00 PM 7.0964 1.4343
3/30/2021 1:45:00 PM 7.1006 1.5061
3/30/2021 2:00:00 PM 7.1024 1.5401
3/30/2021 2:15:00 PM 7.1077 1.5215
3/30/2021 2:30:00 PM 7.112 1.5539
3/30/2021 2:45:00 PM 7.1152 1.4754
3/30/2021 3:00:00 PM 7.1181 1.4314
3/30/2021 3:15:00 PM 7.1215 1.4313
3/30/2021 3:30:00 PM 7.1246 1.431
3/30/2021 3:45:00 PM 7.1251 1.4441
3/30/2021 4:00:00 PM 7.1268 1.4376
3/30/2021 4:15:00 PM 7.13 1.4454
3/30/2021 4:30:00 PM 7.1305 1.4005
3/30/2021 4:45:00 PM 7.1323 1.4202
3/30/2021 5:00:00 PM 7.1346 1.4498
3/30/2021 5:15:00 PM 7.1361 1.5999
3/30/2021 5:30:00 PM 7.1373 1.8412
3/30/2021 5:45:00 PM 7.1358 2.0002
3/30/2021 6:00:00 PM 7.1348 1.9885
3/30/2021 6:15:00 PM 7.1344 1.7856
3/30/2021 6:30:00 PM 7.1347 1.6004
3/30/2021 6:45:00 PM 7.1352 1.5204
3/30/2021 7:00:00 PM 7.1342 1.466
3/30/2021 7:15:00 PM 7.1299 1.3924
3/30/2021 7:30:00 PM 7.1286 1.3522
3/30/2021 7:45:00 PM 7.1255 1.3279
3/30/2021 8:00:00 PM 7.1247 1.4621
3/30/2021 8:15:00 PM 7.1123 1.7764
3/30/2021 8:30:00 PM 7.1002 1.6439
3/30/2021 8:45:00 PM 7.0966 1.6003
3/30/2021 9:00:00 PM 7.0868 1.524
3/30/2021 9:15:00 PM 7.0818 1.5208
3/30/2021 9:30:00 PM 7.0793 1.4825
3/30/2021 9:45:00 PM 7.0774 1.4788
3/30/2021 10:00:00 PM 7.0777 1.455
3/30/2021 10:15:00 PM 7.0768 1.4353
3/30/2021 10:30:00 PM 7.0735 1.4301
3/30/2021 10:45:00 PM 7.0724 1.4346
3/30/2021 11:00:00 PM 7.0699 1.455
3/30/2021 11:15:00 PM 7.0688 1.4495
3/30/2021 11:30:00 PM 7.0677 1.4353
3/30/2021 11:45:00 PM 7.0658 1.4
3/31/2021 12:00:00 AM 7.0677 1.4232
3/31/2021 12:15:00 AM 7.068 1.4271
3/31/2021 12:30:00 AM 7.0664 1.4574
3/31/2021 12:45:00 AM 7.0648 1.4092
3/31/2021 1:00:00 AM 7.0645 1.4037
3/31/2021 1:15:00 AM 7.0638 1.4406
3/31/2021 1:30:00 AM 7.0635 1.4054
3/31/2021 1:45:00 AM 7.0654 1.3986
3/31/2021 2:00:00 AM 7.0626 1.4076
3/31/2021 2:15:00 AM 7.0629 1.3671
3/31/2021 2:30:00 AM 7.0619 1.3972
3/31/2021 2:45:00 AM 7.0616 1.3998
3/31/2021 3:00:00 AM 7.0577 1.3804
3/31/2021 3:15:00 AM 7.058 1.379
3/31/2021 3:30:00 AM 7.0567 1.3848
3/31/2021 3:45:00 AM 7.0564 1.3959
3/31/2021 4:00:00 AM 7.0578 1.3696
3/31/2021 4:15:00 AM 7.0585 1.3548
3/31/2021 4:30:00 AM 7.0579 1.3593
3/31/2021 4:45:00 AM 7.0583 1.3628
3/31/2021 5:00:00 AM 7.0575 1.4487
3/31/2021 5:15:00 AM 7.0581 1.4433
3/31/2021 5:30:00 AM 7.0575 1.4461
3/31/2021 5:45:00 AM 7.0574 1.4001
3/31/2021 6:00:00 AM 6.9314 1.4864
3/31/2021 6:15:00 AM 7.0156 1.4289
3/31/2021 6:30:00 AM 7.0423 1.3518
3/31/2021 6:45:00 AM 7.0486 1.4123
3/31/2021 7:00:00 AM 7.0505 1.4061
3/31/2021 7:15:00 AM 7.0522 1.3417
3/31/2021 7:30:00 AM 7.0514 1.3311
3/31/2021 7:45:00 AM 7.0499 1.3334
3/31/2021 8:00:00 AM 7.0487 1.3327
3/31/2021 8:15:00 AM 7.0489 1.2485
3/31/2021 8:30:00 AM 7.0492 1.2261
3/31/2021 8:45:00 AM 7.0504 1.2998
3/31/2021 9:00:00 AM 7.0504 1.2349
3/31/2021 9:15:00 AM 7.0535 1.3996
3/31/2021 9:30:00 AM 7.0593 1.4372
3/31/2021 9:45:00 AM 7.0546 2.6246
3/31/2021 10:00:00 AM 7.0577 1.4879
3/31/2021 10:15:00 AM 7.0592 1.323
3/31/2021 10:30:00 AM 7.0637 1.2478
3/31/2021 10:45:00 AM 7.0679 1.2497
3/31/2021 11:00:00 AM 7.068 1.2431
3/31/2021 11:15:00 AM 7.071 1.2193
3/31/2021 11:30:00 AM 7.0724 1.1997
3/31/2021 11:45:00 AM 7.07 1.1999
3/31/2021 12:00:00 PM 7.0769 1.1313
3/31/2021 12:15:00 PM 7.0788 1.1223
3/31/2021 12:30:00 PM 7.0817 1.1381
3/31/2021 12:45:00 PM 7.0841 1.2186
3/31/2021 1:00:00 PM 7.0865 1.2091
3/31/2021 1:15:00 PM 7.0872 1.1502
3/31/2021 1:30:00 PM 7.0875 1.1548
3/31/2021 1:45:00 PM 7.0869 1.2428
3/31/2021 2:00:00 PM 7.0882 1.2216
3/31/2021 2:15:00 PM 7.0891 1.2141
3/31/2021 2:30:00 PM 7.0914 1.2322
3/31/2021 2:45:00 PM 7.0917 1.2461
3/31/2021 3:00:00 PM 7.0917 1.2777
3/31/2021 3:15:00 PM 7.0933 1.2322
3/31/2021 3:30:00 PM 7.0943 1.2554
3/31/2021 3:45:00 PM 7.0947 1.158
3/31/2021 4:00:00 PM 7.093 1.1423
3/31/2021 4:15:00 PM 7.0916 1.2094
3/31/2021 4:30:00 PM 7.0917 1.1553
3/31/2021 4:45:00 PM 7.0912 1.1506
3/31/2021 5:00:00 PM 7.0907 1.1416
3/31/2021 5:15:00 PM 7.0899 1.1002
3/31/2021 5:30:00 PM 7.0875 1.1157
3/31/2021 5:45:00 PM 7.0896 1.1999
3/31/2021 6:00:00 PM 7.0852 1.1372
3/31/2021 6:15:00 PM 7.0826 1.1481
3/31/2021 6:30:00 PM 7.0821 1.1469
3/31/2021 6:45:00 PM 7.0791 1.1418
3/31/2021 7:00:00 PM 7.0773 1.1695
3/31/2021 7:15:00 PM 7.0731 1.2833
3/31/2021 7:30:00 PM 7.0715 1.2845
3/31/2021 7:45:00 PM 7.0669 1.3024
3/31/2021 8:00:00 PM 7.0671 1.3464
3/31/2021 8:15:00 PM 7.0651 1.3266
3/31/2021 8:30:00 PM 7.0602 1.3523
3/31/2021 8:45:00 PM 7.0574 1.3
3/31/2021 9:00:00 PM 7.4871 1.3249
3/31/2021 9:15:00 PM 7.8376 1.3392
3/31/2021 9:30:00 PM 8.0325 1.3386
3/31/2021 9:45:00 PM 7.8549 1.3682
3/31/2021 10:00:00 PM 7.7985 1.6603
3/31/2021 10:15:00 PM 7.8312 1.508
3/31/2021 10:30:00 PM 7.8181 1.3678
3/31/2021 10:45:00 PM 7.8016 1.3294
3/31/2021 11:00:00 PM 7.7802 1.265
3/31/2021 11:15:00 PM 7.7674 1.2555
3/31/2021 11:30:00 PM 7.7437 1.2491
3/31/2021 11:45:00 PM 7.6874 1.2997
4/1/2021 12:00:00 AM 7.589 1.2276
4/1/2021 12:15:00 AM 7.6244 1.2336
4/1/2021 12:30:00 AM 7.6655 1.2511
4/1/2021 12:45:00 AM 7.6958 1.2417
4/1/2021 1:00:00 AM 7.7146 1.2318
4/1/2021 1:15:00 AM 7.6553 1.2377
4/1/2021 1:30:00 AM 7.5598 1.2172
4/1/2021 1:45:00 AM 7.5697 1.2382
4/1/2021 2:00:00 AM 7.6122 1.243
4/1/2021 2:15:00 AM 7.6597 1.2289
4/1/2021 2:30:00 AM 7.6899 1.1723
4/1/2021 2:45:00 AM 7.658 1.2001
4/1/2021 3:00:00 AM 7.524 1.2372
4/1/2021 3:15:00 AM 7.5509 1.2499
4/1/2021 3:30:00 AM 7.5969 1.2611
4/1/2021 3:45:00 AM 7.6507 1.2478
4/1/2021 4:00:00 AM 7.6211 1.2357
4/1/2021 4:15:00 AM 7.5168 1.2294
4/1/2021 4:30:00 AM 7.5062 1.2355
4/1/2021 4:45:00 AM 7.5459 1.2974
4/1/2021 5:00:00 AM 7.5864 1.4106
4/1/2021 5:15:00 AM 7.609 1.2685
4/1/2021 5:30:00 AM 7.5104 1.2166
4/1/2021 5:45:00 AM 7.4774 1.3
4/1/2021 6:00:00 AM 7.5351 1.1691
4/1/2021 6:15:00 AM 7.5851 1.129
4/1/2021 6:30:00 AM 7.5651 1.1869
4/1/2021 6:45:00 AM 7.475 1.2516
4/1/2021 7:00:00 AM 7.4636 1.2779
4/1/2021 7:15:00 AM 7.51 1.246
4/1/2021 7:30:00 AM 7.5601 1.2289
4/1/2021 7:45:00 AM 7.604 1.1752
4/1/2021 8:00:00 AM 7.6145 1.2727
4/1/2021 8:15:00 AM 7.4817 1.3583
4/1/2021 8:30:00 AM 7.4258 1.2996
4/1/2021 8:45:00 AM 7.4312 1.2
4/1/2021 9:00:00 AM 7.5135 1.1556
4/1/2021 9:15:00 AM 7.5659 1.8714
4/1/2021 9:30:00 AM 7.5385 1.3409
4/1/2021 9:45:00 AM 7.4346 1.1467
4/1/2021 10:00:00 AM 7.4164 1.2164
4/1/2021 10:15:00 AM 7.4511 1.2611
4/1/2021 10:30:00 AM 7.5078 1.3302
4/1/2021 10:45:00 AM 7.5485 1.3434
4/1/2021 11:00:00 AM 7.4524 1.3962
4/1/2021 11:15:00 AM 7.4095 1.3377
4/1/2021 11:30:00 AM 7.4288 1.3509
4/1/2021 11:45:00 AM 7.448 1.3
4/1/2021 12:00:00 PM 7.5598 1.4104
4/1/2021 12:15:00 PM 7.6005 1.3815
4/1/2021 12:30:00 PM 7.4714 1.6213
4/1/2021 12:45:00 PM 7.408 1.5984
4/1/2021 1:00:00 PM 7.4206 1.6786
4/1/2021 1:15:00 PM 7.4735 1.9239
4/1/2021 1:30:00 PM 7.5668 2.1725
4/1/2021 1:45:00 PM 7.5041 2.4023
4/1/2021 2:00:00 PM 7.4221 2.9899
4/1/2021 2:15:00 PM 7.4071 3.3018
4/1/2021 2:30:00 PM 7.4467 3.3512
4/1/2021 2:45:00 PM 7.5322 3.4846
4/1/2021 3:00:00 PM 7.5747 3.4269
4/1/2021 3:15:00 PM 7.4439 3.4232
4/1/2021 3:30:00 PM 7.391 3.1892
4/1/2021 3:45:00 PM 7.4167 2.8755
4/1/2021 4:00:00 PM 7.4938 2.7622
4/1/2021 4:15:00 PM 7.547 2.6922
4/1/2021 4:30:00 PM 7.4387 2.459
4/1/2021 4:45:00 PM 7.3975 2.4097
4/1/2021 5:00:00 PM 7.4247 2.5518
4/1/2021 5:15:00 PM 7.5338 2.2764
4/1/2021 5:30:00 PM 7.7246 1.907
4/1/2021 5:45:00 PM 7.6916 1.7998
4/1/2021 6:00:00 PM 7.4458 1.5703
4/1/2021 6:15:00 PM 7.4415 1.4688
4/1/2021 6:30:00 PM 7.5227 1.3726
4/1/2021 6:45:00 PM 7.695 1.3329
4/1/2021 7:00:00 PM 7.7544 1.2911
4/1/2021 7:15:00 PM 7.5259 1.3521
4/1/2021 7:30:00 PM 7.4254 1.313
4/1/2021 7:45:00 PM 7.4504 1.2386
4/1/2021 8:00:00 PM 7.5724 1.2502
4/1/2021 8:15:00 PM 7.6037 1.1646
4/1/2021 8:30:00 PM 7.431 1.1368
4/1/2021 8:45:00 PM 7.3934 1.1998
4/1/2021 9:00:00 PM 7.4223 1.244
4/1/2021 9:15:00 PM 7.5209 1.2924
4/1/2021 9:30:00 PM 7.6181 1.2359
4/1/2021 9:45:00 PM 7.4645 1.2318
4/1/2021 10:00:00 PM 7.3625 1.2213
4/1/2021 10:15:00 PM 7.3485 1.4908
4/1/2021 10:30:00 PM 7.3829 1.5059
4/1/2021 10:45:00 PM 7.4799 1.3462
4/1/2021 11:00:00 PM 7.5963 1.3507
4/1/2021 11:15:00 PM 7.4743 1.2471
4/1/2021 11:30:00 PM 7.3458 1.2316
4/1/2021 11:45:00 PM 7.3304 1.2999
4/2/2021 12:00:00 AM 7.3812 1.704
4/2/2021 12:15:00 AM 7.4604 1.5089
4/2/2021 12:30:00 AM 7.5225 1.3161
4/2/2021 12:45:00 AM 7.3842 1.2419
4/2/2021 1:00:00 AM 7.3353 1.2383
4/2/2021 1:15:00 AM 7.3404 1.1597
4/2/2021 1:30:00 AM 7.3777 1.1362
4/2/2021 1:45:00 AM 7.4516 1.1849
4/2/2021 2:00:00 AM 7.5334 1.2351
4/2/2021 2:15:00 AM 7.5455 1.1356
4/2/2021 2:30:00 AM 7.3586 1.1512
4/2/2021 2:45:00 AM 7.3248 1.1999
4/2/2021 3:00:00 AM 7.3394 1.1641
4/2/2021 3:15:00 AM 7.3792 1.2524
4/2/2021 3:30:00 AM 7.4502 1.2494
4/2/2021 3:45:00 AM 7.521 1.2398
4/2/2021 4:00:00 AM 7.578 1.2672
4/2/2021 4:15:00 AM 7.5936 1.2555
4/2/2021 4:30:00 AM 7.597 1.1988
4/2/2021 4:45:00 AM 7.4919 1.1831
4/2/2021 5:00:00 AM 7.5626 1.1484
4/2/2021 5:15:00 AM 7.5913 1.1002
4/2/2021 5:30:00 AM 7.5813 1.121
4/2/2021 5:45:00 AM 7.6034 1.1001
4/2/2021 6:00:00 AM 7.6282 1.1592
4/2/2021 6:15:00 AM 7.6144 1.1613
4/2/2021 6:30:00 AM 7.5955 1.1561
4/2/2021 6:45:00 AM 7.5726 1.1437
4/2/2021 7:00:00 AM 7.5685 1.2257
4/2/2021 7:15:00 AM 7.5562 1.214
4/2/2021 7:30:00 AM 7.5582 1.1391
4/2/2021 7:45:00 AM 7.5466 1.1602
4/2/2021 8:00:00 AM 7.5337 1.1524
4/2/2021 8:15:00 AM 7.5419 1.1556
4/2/2021 8:30:00 AM 7.566 1.1083
4/2/2021 8:45:00 AM 7.5824 1.1998
4/2/2021 9:00:00 AM 7.5522 1.1303
4/2/2021 9:15:00 AM 7.553 1.2703
4/2/2021 9:30:00 AM 7.515 1.4927
4/2/2021 9:45:00 AM 7.3841 1.4567
4/2/2021 10:00:00 AM 7.3379 1.4525
4/2/2021 10:15:00 AM 7.3471 1.3643
4/2/2021 10:30:00 AM 7.3902 1.3403
4/2/2021 10:45:00 AM 7.4526 1.3014
4/2/2021 11:00:00 AM 7.5447 1.213
4/2/2021 11:15:00 AM 7.6359 1.2443
4/2/2021 11:30:00 AM 7.6991 1.3584
4/2/2021 11:45:00 AM 7.7252 1.3999
4/2/2021 12:00:00 PM 7.7173 1.3437
4/2/2021 12:15:00 PM 7.4626 1.4468
4/2/2021 12:30:00 PM 7.3581 1.4752
4/2/2021 12:45:00 PM 7.3533 1.4404
4/2/2021 1:00:00 PM 7.3995 1.3657
4/2/2021 1:15:00 PM 7.4748 1.2949
4/2/2021 1:30:00 PM 7.5874 1.3951
4/2/2021 1:45:00 PM 7.7168 1.5122
4/2/2021 2:00:00 PM 7.8138 1.5375
4/2/2021 2:15:00 PM 7.8164 1.6075
4/2/2021 2:30:00 PM 7.8374 1.8454
4/2/2021 2:45:00 PM 7.8815 1.8125
4/2/2021 3:00:00 PM 7.8055 1.6839
4/2/2021 3:15:00 PM 7.5683 1.6068
4/2/2021 3:30:00 PM 7.4293 1.7898
4/2/2021 3:45:00 PM 7.4265 1.7168
4/2/2021 4:00:00 PM 7.4821 1.6709
4/2/2021 4:15:00 PM 7.596 1.6237
4/2/2021 4:30:00 PM 7.7396 1.5822
4/2/2021 4:45:00 PM 7.7814 1.4184
4/2/2021 5:00:00 PM 7.7591 1.3841
4/2/2021 5:15:00 PM 7.5624 1.3327
4/2/2021 5:30:00 PM 7.4447 1.334
4/2/2021 5:45:00 PM 7.4256 1.3
4/2/2021 6:00:00 PM 7.4702 1.2917
4/2/2021 6:15:00 PM 7.5332 1.2477
4/2/2021 6:30:00 PM 7.6799 1.1792
4/2/2021 6:45:00 PM 7.7747 1.2152
4/2/2021 7:00:00 PM 7.8084 1.2637
4/2/2021 7:15:00 PM 7.7546 1.2406
4/2/2021 7:30:00 PM 7.5052 1.2442
4/2/2021 7:45:00 PM 7.4271 1.1761
4/2/2021 8:00:00 PM 7.4247 1.3377
4/2/2021 8:15:00 PM 7.4464 1.3975
4/2/2021 8:30:00 PM 7.5007 1.2835
4/2/2021 8:45:00 PM 7.5334 1.2003
4/2/2021 9:00:00 PM 7.6829 1.2259
4/2/2021 9:15:00 PM 7.7376 1.1532
4/2/2021 9:30:00 PM 7.7302 1.1851
4/2/2021 9:45:00 PM 7.7048 1.2164
4/2/2021 10:00:00 PM 7.6871 1.2061
4/2/2021 10:15:00 PM 7.686 1.2032
4/2/2021 10:30:00 PM 7.6676 1.1643
4/2/2021 10:45:00 PM 7.6454 1.1587
4/2/2021 11:00:00 PM 7.6294 1.1417
4/2/2021 11:15:00 PM 7.6204 1.1422
4/2/2021 11:30:00 PM 7.6069 1.1463
4/2/2021 11:45:00 PM 7.5978 1.1992
4/3/2021 12:00:00 AM 7.5407 1.1657
4/3/2021 12:15:00 AM 7.3957 1.127
4/3/2021 12:30:00 AM 7.3505 1.1375
4/3/2021 12:45:00 AM 7.3608 1.1381
4/3/2021 1:00:00 AM 7.3878 1.1409
4/3/2021 1:15:00 AM 7.4129 1.1404
4/3/2021 1:30:00 AM 7.4357 1.1463
4/3/2021 1:45:00 AM 7.4436 1.1391
4/3/2021 2:00:00 AM 7.4604 1.1149
4/3/2021 2:15:00 AM 7.4745 1.0885
4/3/2021 2:30:00 AM 7.4884 1.1048
4/3/2021 2:45:00 AM 7.4802 1.1001
4/3/2021 3:00:00 AM 7.4602 1.0646
4/3/2021 3:15:00 AM 7.4617 1.0535
4/3/2021 3:30:00 AM 7.4486 1.0999
4/3/2021 3:45:00 AM 7.4393 1.0786
4/3/2021 4:00:00 AM 7.4307 1.0705
4/3/2021 4:15:00 AM 7.4252 1.0663
4/3/2021 4:30:00 AM 7.4109 1.0939
4/3/2021 4:45:00 AM 7.4034 1.1267
4/3/2021 5:00:00 AM 7.4154 1.1351
4/3/2021 5:15:00 AM 7.4382 1.127
4/3/2021 5:30:00 AM 7.4813 1.0496
4/3/2021 5:45:00 AM 7.483 1
4/3/2021 6:00:00 AM 7.4465 1.0963
4/3/2021 6:15:00 AM 7.5166 1.0358
4/3/2021 6:30:00 AM 7.5049 1.0484
4/3/2021 6:45:00 AM 7.5084 1.0267
4/3/2021 7:00:00 AM 7.4691 1.0281
4/3/2021 7:15:00 AM 7.4397 0.9744
4/3/2021 7:30:00 AM 7.4244 0.9515
4/3/2021 7:45:00 AM 7.4152 0.93
4/3/2021 8:00:00 AM 7.413 0.9733
4/3/2021 8:15:00 AM 7.4164 1.0929
4/3/2021 8:30:00 AM 7.4245 1.1608
4/3/2021 8:45:00 AM 7.4312 1.1
4/3/2021 9:00:00 AM 7.4356 1.0388
4/3/2021 9:15:00 AM 7.4361 0.9651
4/3/2021 9:30:00 AM 7.4487 1.1116
4/3/2021 9:45:00 AM 7.4421 1.2368
4/3/2021 10:00:00 AM 7.4177 1.6224
4/3/2021 10:15:00 AM 7.4004 1.3011
4/3/2021 10:30:00 AM 7.4007 1.1521
4/3/2021 10:45:00 AM 7.3994 1.0683
4/3/2021 11:00:00 AM 7.3961 0.9334
4/3/2021 11:15:00 AM 7.3951 0.9238
4/3/2021 11:30:00 AM 7.3959 0.8497
4/3/2021 11:45:00 AM 7.3948 0.8997
4/3/2021 12:00:00 PM 7.41 0.839
4/3/2021 12:15:00 PM 7.4152 0.8211
4/3/2021 12:30:00 PM 7.4154 0.9942
4/3/2021 12:45:00 PM 7.4253 1.0461
4/3/2021 1:00:00 PM 7.4345 1.0033
4/3/2021 1:15:00 PM 7.3781 0.9438
4/3/2021 1:30:00 PM 7.3451 0.9213
4/3/2021 1:45:00 PM 7.3325 0.8667
4/3/2021 2:00:00 PM 7.3315 0.8732
4/3/2021 2:15:00 PM 7.3518 0.8393
4/3/2021 2:30:00 PM 7.3799 0.8403
4/3/2021 2:45:00 PM 7.4131 0.845
4/3/2021 3:00:00 PM 7.4525 0.839
4/3/2021 3:15:00 PM 7.5062 0.858
4/3/2021 3:30:00 PM 7.5792 0.8547
4/3/2021 3:45:00 PM 7.5621 0.8398
4/3/2021 4:00:00 PM 7.4037 0.849
4/3/2021 4:15:00 PM 7.3692 0.8662
4/3/2021 4:30:00 PM 7.3654 0.851
4/3/2021 4:45:00 PM 7.3774 0.8423
4/3/2021 5:00:00 PM 7.4122 1.1144
4/3/2021 5:15:00 PM 7.442 1.045
4/3/2021 5:30:00 PM 7.5746 0.9781
4/3/2021 5:45:00 PM 7.6678 1
4/3/2021 6:00:00 PM 7.8405 0.8764
4/3/2021 6:15:00 PM 7.6313 0.8694
4/3/2021 6:30:00 PM 7.4315 0.9092
4/3/2021 6:45:00 PM 7.3764 0.9512
4/3/2021 7:00:00 PM 7.3739 0.8717
4/3/2021 7:15:00 PM 7.3984 0.8326
4/3/2021 7:30:00 PM 7.4545 0.8893
4/3/2021 7:45:00 PM 7.6393 0.8307
4/3/2021 8:00:00 PM 7.7958 0.8421
4/3/2021 8:15:00 PM 7.8616 0.8888
4/3/2021 8:30:00 PM 7.8387 0.9226
4/3/2021 8:45:00 PM 7.714 0.8998
4/3/2021 9:00:00 PM 7.3877 0.8527
4/3/2021 9:15:00 PM 7.3415 0.8536
4/3/2021 9:30:00 PM 7.3489 0.8812
4/3/2021 9:45:00 PM 7.3825 0.8978
4/3/2021 10:00:00 PM 7.4474 0.9461
4/3/2021 10:15:00 PM 7.5633 0.9272
4/3/2021 10:30:00 PM 7.6242 0.9446
4/3/2021 10:45:00 PM 7.6767 0.9551
4/3/2021 11:00:00 PM 7.7145 0.9719
4/3/2021 11:15:00 PM 7.5153 1.0551
4/3/2021 11:30:00 PM 7.335 1.0933
4/3/2021 11:45:00 PM 7.3094 1.1001
4/4/2021 12:00:00 AM 7.3003 1.0149
4/4/2021 12:15:00 AM 7.319 0.9453
4/4/2021 12:30:00 AM 7.3464 0.9639
4/4/2021 12:45:00 AM 7.3741 0.9387
4/4/2021 1:00:00 AM 7.4107 0.9496
4/4/2021 1:15:00 AM 7.444 0.9435
4/4/2021 1:30:00 AM 7.4436 0.8771
4/4/2021 1:45:00 AM 7.3429 0.8735
4/4/2021 2:00:00 AM 7.3035 0.9152
4/4/2021 2:15:00 AM 7.2923 0.9513
4/4/2021 2:30:00 AM 7.2887 0.9379
4/4/2021 2:45:00 AM 7.2926 1
4/4/2021 3:00:00 AM 7.3135 0.8776
4/4/2021 3:15:00 AM 7.3236 0.8666
4/4/2021 3:30:00 AM 7.3342 0.8329
4/4/2021 3:45:00 AM 7.3332 0.8403
4/4/2021 4:00:00 AM 7.3403 0.8518
4/4/2021 4:15:00 AM 7.3168 0.8345
4/4/2021 4:30:00 AM 7.2776 0.8356
4/4/2021 4:45:00 AM 7.2685 0.8481
4/4/2021 5:00:00 AM 7.2643 0.8432
4/4/2021 5:15:00 AM 7.2774 0.8841
4/4/2021 5:30:00 AM 7.2935 0.8624
4/4/2021 5:45:00 AM 7.3052 0.8999
4/4/2021 6:00:00 AM 7.2545 1.1967
4/4/2021 6:15:00 AM 7.3053 0.8407
4/4/2021 6:30:00 AM 7.3037 0.8315
4/4/2021 6:45:00 AM 7.2738 0.8447
4/4/2021 7:00:00 AM 7.2636 0.8519
4/4/2021 7:15:00 AM 7.2625 0.8416
4/4/2021 7:30:00 AM 7.2752 0.8598
4/4/2021 7:45:00 AM 7.2925 0.7628
4/4/2021 8:00:00 AM 7.3082 0.7269
4/4/2021 8:15:00 AM 7.3208 0.7398
4/4/2021 8:30:00 AM 7.333 0.7367
4/4/2021 8:45:00 AM 7.3402 0.7999
4/4/2021 9:00:00 AM 7.2806 0.7346
4/4/2021 9:15:00 AM 7.2683 0.7319
4/4/2021 9:30:00 AM 7.2655 0.7392
4/4/2021 9:45:00 AM 7.275 0.7423
4/4/2021 10:00:00 AM 7.2959 0.7432
4/4/2021 10:15:00 AM 7.3103 0.7723
4/4/2021 10:30:00 AM 7.3253 0.7597
4/4/2021 10:45:00 AM 7.3366 0.7578
4/4/2021 11:00:00 AM 7.3185 0.7388
4/4/2021 11:15:00 AM 7.2841 0.7394
4/4/2021 11:30:00 AM 7.2735 0.7455
4/4/2021 11:45:00 AM 7.2716 0.7001
4/4/2021 12:00:00 PM 7.2786 0.7479
4/4/2021 12:15:00 PM 7.3021 0.7622
4/4/2021 12:30:00 PM 7.3226 0.7533
4/4/2021 12:45:00 PM 7.3369 0.7549
4/4/2021 1:00:00 PM 7.3141 0.6728
4/4/2021 1:15:00 PM 7.2892 0.6908
4/4/2021 1:30:00 PM 7.2813 0.7499
4/4/2021 1:45:00 PM 7.2801 0.7902
4/4/2021 2:00:00 PM 7.3031 0.776
4/4/2021 2:15:00 PM 7.3298 0.7221
4/4/2021 2:30:00 PM 7.3598 0.7338
4/4/2021 2:45:00 PM 7.359 0.7226
4/4/2021 3:00:00 PM 7.3328 0.7254
4/4/2021 3:15:00 PM 7.3175 0.7304
4/4/2021 3:30:00 PM 7.3127 0.731
4/4/2021 3:45:00 PM 7.3256 0.7531
4/4/2021 4:00:00 PM 7.3527 0.8436
4/4/2021 4:15:00 PM 7.3833 0.8382
4/4/2021 4:30:00 PM 7.3737 0.8256
4/4/2021 4:45:00 PM 7.3526 0.8476
4/4/2021 5:00:00 PM 7.3393 0.8371
4/4/2021 5:15:00 PM 7.3394 0.816
4/4/2021 5:30:00 PM 7.357 0.8312
4/4/2021 5:45:00 PM 7.3724 0.8
4/4/2021 6:00:00 PM 7.4162 0.7414
4/4/2021 6:15:00 PM 7.3903 0.7642
4/4/2021 6:30:00 PM 7.3694 0.8905
4/4/2021 6:45:00 PM 7.3606 1.0505
4/4/2021 7:00:00 PM 7.3823 0.9981
4/4/2021 7:15:00 PM 7.4076 0.877
4/4/2021 7:30:00 PM 7.3903 0.8249
4/4/2021 7:45:00 PM 7.3694 0.7673
4/4/2021 8:00:00 PM 7.3541 1.0309
4/4/2021 8:15:00 PM 7.3522 1.0558
4/4/2021 8:30:00 PM 7.3682 0.9881
4/4/2021 8:45:00 PM 7.357 0.9999
4/4/2021 9:00:00 PM 7.3253 0.9335
4/4/2021 9:15:00 PM 7.3183 0.948
4/4/2021 9:30:00 PM 7.3378 0.9379
4/4/2021 9:45:00 PM 7.3566 0.8559
4/4/2021 10:00:00 PM 7.3298 0.8963
4/4/2021 10:15:00 PM 7.3082 0.9472
4/4/2021 10:30:00 PM 7.3048 0.8894
4/4/2021 10:45:00 PM 7.3239 0.8744
4/4/2021 11:00:00 PM 7.3464 0.8523
4/4/2021 11:15:00 PM 7.3256 0.8855
4/4/2021 11:30:00 PM 7.3032 0.9009
4/4/2021 11:45:00 PM 7.2954 0.8001
4/5/2021 12:00:00 AM 7.3157 0.9453
4/5/2021 12:15:00 AM 7.3348 0.9554
4/5/2021 12:30:00 AM 7.311 0.9258
4/5/2021 12:45:00 AM 7.2868 0.9343
4/5/2021 1:00:00 AM 7.2847 0.9475
4/5/2021 1:15:00 AM 7.304 0.9207
4/5/2021 1:30:00 AM 7.3369 0.8825
4/5/2021 1:45:00 AM 7.3163 0.9281
4/5/2021 2:00:00 AM 7.2859 0.9431
4/5/2021 2:15:00 AM 7.2779 0.8851
4/5/2021 2:30:00 AM 7.2953 0.9069
4/5/2021 2:45:00 AM 7.3038 0.8998
4/5/2021 3:00:00 AM 7.2949 0.8577
4/5/2021 3:15:00 AM 7.2712 0.867
4/5/2021 3:30:00 AM 7.2701 0.8569
4/5/2021 3:45:00 AM 7.2897 0.8259
4/5/2021 4:00:00 AM 7.3088 0.8329
4/5/2021 4:15:00 AM 7.2907 0.8367
4/5/2021 4:30:00 AM 7.2664 0.8325
4/5/2021 4:45:00 AM 7.206 0.8911
4/5/2021 5:00:00 AM 7.2555 0.827
4/5/2021 5:15:00 AM 7.2871 0.8261
4/5/2021 5:30:00 AM 7.2698 0.8382
4/5/2021 5:45:00 AM 7.2618 0.8998
4/5/2021 6:00:00 AM 7.2787 0.8422
4/5/2021 6:15:00 AM 7.3037 0.7878
4/5/2021 6:30:00 AM 7.2956 0.7982
4/5/2021 6:45:00 AM 7.2686 0.7699
4/5/2021 7:00:00 AM 7.2634 0.801
4/5/2021 7:15:00 AM 7.2866 0.7428
4/5/2021 7:30:00 AM 7.3105 0.7418
4/5/2021 7:45:00 AM 7.293 0.6835
4/5/2021 8:00:00 AM 7.264 0.6998
4/5/2021 8:15:00 AM 7.2583 0.688
4/5/2021 8:30:00 AM 7.2735 0.7055
4/5/2021 8:45:00 AM 7.2856 0.7001
4/5/2021 9:00:00 AM 7.3518 1.1423
4/5/2021 9:15:00 AM 7.4335 1.0493
4/5/2021 9:30:00 AM 7.46 0.7436
4/5/2021 9:45:00 AM 7.5383 0.631
4/5/2021 10:00:00 AM 7.5899 0.7375
4/5/2021 10:15:00 AM 7.5395 0.7697
4/5/2021 10:30:00 AM 7.5627 0.7295
4/5/2021 10:45:00 AM 7.6366 0.6558
4/5/2021 11:00:00 AM 7.6295 0.6409
4/5/2021 11:15:00 AM 7.6337 0.6307
4/5/2021 11:30:00 AM 7.5972 0.6326
4/5/2021 11:45:00 AM 7.5992 0.7
4/5/2021 12:00:00 PM 7.6622 0.7172
4/5/2021 12:15:00 PM 7.7398 0.7726
4/5/2021 12:30:00 PM 7.7787 0.734
4/5/2021 12:45:00 PM 7.7617 0.756
4/5/2021 1:00:00 PM 7.7427 0.8693
4/5/2021 1:15:00 PM 7.732 1.0357
4/5/2021 1:30:00 PM 7.7141 1.1457
4/5/2021 1:45:00 PM 7.6956 1.037
4/5/2021 2:00:00 PM 7.6836 0.979
4/5/2021 2:15:00 PM 7.6832 1.036
4/5/2021 2:30:00 PM 7.6972 0.994
4/5/2021 2:45:00 PM 7.7092 0.9558
4/5/2021 3:00:00 PM 7.7261 0.9592
4/5/2021 3:15:00 PM 7.7449 0.9802
4/5/2021 3:30:00 PM 7.7486 1.1093
4/5/2021 3:45:00 PM 7.7529 1.3196
4/5/2021 4:00:00 PM 7.7754 1.2731
4/5/2021 4:15:00 PM 7.7638 1.1531
4/5/2021 4:30:00 PM 7.7758 1.0676
4/5/2021 4:45:00 PM 7.8068 1.0412
4/5/2021 5:00:00 PM 7.8242 1.0892
4/5/2021 5:15:00 PM 7.8346 1.3155
4/5/2021 5:30:00 PM 7.8264 1.268
4/5/2021 5:45:00 PM 7.8218 1.2002
4/5/2021 6:00:00 PM 7.8526 1.1765
4/5/2021 6:15:00 PM 7.8611 1.0642
4/5/2021 6:30:00 PM 7.9054 0.9609
4/5/2021 6:45:00 PM 7.9349 0.9468
4/5/2021 7:00:00 PM 7.9105 0.8654
4/5/2021 7:15:00 PM 7.8945 0.834
4/5/2021 7:30:00 PM 7.8821 0.7563
4/5/2021 7:45:00 PM 7.8722 0.7313
4/5/2021 8:00:00 PM 7.8438 0.7502
4/5/2021 8:15:00 PM 7.8938 0.9483
4/5/2021 8:30:00 PM 7.9837 1.0066
4/5/2021 8:45:00 PM 8.0318 0.9998
4/5/2021 9:00:00 PM 7.8904 0.8628
4/5/2021 9:15:00 PM 7.7498 0.8371
4/5/2021 9:30:00 PM 7.7426 0.8405
4/5/2021 9:45:00 PM 7.7261 0.8299
4/5/2021 10:00:00 PM 7.7106 0.8263
4/5/2021 10:15:00 PM 7.6922 0.854
4/5/2021 10:30:00 PM 7.6867 0.8452
4/5/2021 10:45:00 PM 7.6747 0.8341
4/5/2021 11:00:00 PM 7.6627 0.8363
4/5/2021 11:15:00 PM 7.6314 0.881
4/5/2021 11:30:00 PM 7.5283 0.8369
4/5/2021 11:45:00 PM 7.5068 0.9
4/6/2021 12:00:00 AM 7.4928 0.8197
4/6/2021 12:15:00 AM 7.5041 0.8193
4/6/2021 12:30:00 AM 7.5142 0.782
4/6/2021 12:45:00 AM 7.522 0.7885
4/6/2021 1:00:00 AM 7.5332 0.8041
4/6/2021 1:15:00 AM 7.5427 0.7631
4/6/2021 1:30:00 AM 7.5471 0.7952
4/6/2021 1:45:00 AM 7.5433 0.801
4/6/2021 2:00:00 AM 7.5408 0.845
4/6/2021 2:15:00 AM 7.5404 0.8425
4/6/2021 2:30:00 AM 7.5303 0.8035
4/6/2021 2:45:00 AM 7.5208 0.8
4/6/2021 3:00:00 AM 7.5167 0.8199
4/6/2021 3:15:00 AM 7.5075 0.8305
4/6/2021 3:30:00 AM 7.4959 0.775
4/6/2021 3:45:00 AM 7.4962 0.8061
4/6/2021 4:00:00 AM 7.4935 0.8541
4/6/2021 4:15:00 AM 7.4845 0.7894
4/6/2021 4:30:00 AM 7.4809 0.7978
4/6/2021 4:45:00 AM 7.4513 0.8463
4/6/2021 5:00:00 AM 7.4432 0.7917
4/6/2021 5:15:00 AM 7.4736 0.7319
4/6/2021 5:30:00 AM 7.4768 0.7426
4/6/2021 5:45:00 AM 7.4704 0.7999
4/6/2021 6:00:00 AM 7.4674 0.7255
4/6/2021 6:15:00 AM 7.4658 0.6759
4/6/2021 6:30:00 AM 7.4666 0.6738
4/6/2021 6:45:00 AM 7.4627 0.6517
4/6/2021 7:00:00 AM 7.4633 0.6366
4/6/2021 7:15:00 AM 7.462 0.6346
4/6/2021 7:30:00 AM 7.4672 0.6369
4/6/2021 7:45:00 AM 7.4636 0.6503
4/6/2021 8:00:00 AM 7.4643 0.6686
4/6/2021 8:15:00 AM 7.4613 0.6678
4/6/2021 8:30:00 AM 7.4603 0.6587
4/6/2021 8:45:00 AM 7.4592 0.6998
4/6/2021 9:00:00 AM 7.4642 0.6348
4/6/2021 9:15:00 AM 7.4653 0.6001
4/6/2021 9:30:00 AM 7.4662 0.7677
4/6/2021 9:45:00 AM 7.4638 0.6757
4/6/2021 10:00:00 AM 7.4581 1.3211
4/6/2021 10:15:00 AM 7.4533 0.6933
4/6/2021 10:30:00 AM 7.453 0.627
4/6/2021 10:45:00 AM 7.4495 0.5502
4/6/2021 11:00:00 AM 7.4447 0.5539
4/6/2021 11:15:00 AM 7.4189 0.5458
4/6/2021 11:30:00 AM 7.3994 0.5464
4/6/2021 11:45:00 AM 7.3934 0.5999
4/6/2021 12:00:00 PM 7.4199 0.6442
4/6/2021 12:15:00 PM 7.4398 0.6627
4/6/2021 12:30:00 PM 7.4588 0.6668
4/6/2021 12:45:00 PM 7.4821 0.634
4/6/2021 1:00:00 PM 7.4271 0.6296
4/6/2021 1:15:00 PM 7.3929 0.6321
4/6/2021 1:30:00 PM 7.407 0.5911
4/6/2021 1:45:00 PM 7.4341 0.6066
4/6/2021 2:00:00 PM 7.4581 0.5719
4/6/2021 2:15:00 PM 7.4915 0.5726
4/6/2021 2:30:00 PM 7.445 0.5131
4/6/2021 2:45:00 PM 7.4217 0.5293
4/6/2021 3:00:00 PM 7.4346 0.537
4/6/2021 3:15:00 PM 7.4623 0.5396
4/6/2021 3:30:00 PM 7.4987 0.5306
4/6/2021 3:45:00 PM 7.4755 0.5274
4/6/2021 4:00:00 PM 7.4552 0.5795
4/6/2021 4:15:00 PM 7.4708 0.6062
4/6/2021 4:30:00 PM 7.5022 0.5924
4/6/2021 4:45:00 PM 7.5191 0.5961
4/6/2021 5:00:00 PM 7.484 0.605
4/6/2021 5:15:00 PM 7.4822 0.5739
4/6/2021 5:30:00 PM 7.5074 0.5562
4/6/2021 5:45:00 PM 7.5222 0.5002
4/6/2021 6:00:00 PM 7.5126 0.5329
4/6/2021 6:15:00 PM 7.4956 0.5318
4/6/2021 6:30:00 PM 7.5131 0.5469
4/6/2021 6:45:00 PM 7.5418 0.5516
4/6/2021 7:00:00 PM 7.5337 0.5643
4/6/2021 7:15:00 PM 7.5066 0.5579
4/6/2021 7:30:00 PM 7.5079 0.5488
4/6/2021 7:45:00 PM 7.5269 0.5366
4/6/2021 8:00:00 PM 7.5254 0.5542
4/6/2021 8:15:00 PM 7.4947 0.5539
4/6/2021 8:30:00 PM 7.4915 0.5415
4/6/2021 8:45:00 PM 7.497 0.5997
4/6/2021 9:00:00 PM 7.4898 0.8462
4/6/2021 9:15:00 PM 7.4651 0.7524
4/6/2021 9:30:00 PM 7.4611 0.7434
4/6/2021 9:45:00 PM 7.4723 0.6855
4/6/2021 10:00:00 PM 7.462 0.6822
4/6/2021 10:15:00 PM 7.4388 0.7118
4/6/2021 10:30:00 PM 7.4443 0.6714
4/6/2021 10:45:00 PM 7.463 0.652
4/6/2021 11:00:00 PM 7.4475 0.6896
4/6/2021 11:15:00 PM 7.4214 0.679
4/6/2021 11:30:00 PM 7.4261 0.6845
4/6/2021 11:45:00 PM 7.4326 0.7005
4/7/2021 12:00:00 AM 7.424 0.6967
4/7/2021 12:15:00 AM 7.4065 0.7389
4/7/2021 12:30:00 AM 7.4117 0.7471
4/7/2021 12:45:00 AM 7.4234 0.7414
4/7/2021 1:00:00 AM 7.4025 0.7526
4/7/2021 1:15:00 AM 7.3783 0.7392
4/7/2021 1:30:00 AM 7.3835 0.7486
4/7/2021 1:45:00 AM 7.3961 0.7644
4/7/2021 2:00:00 AM 7.379 0.7332
4/7/2021 2:15:00 AM 7.3558 0.7363
4/7/2021 2:30:00 AM 7.3584 0.7169
4/7/2021 2:45:00 AM 7.364 0.6999
4/7/2021 3:00:00 AM 7.3558 0.7088
4/7/2021 3:15:00 AM 7.3385 0.7452
4/7/2021 3:30:00 AM 7.3476 0.7273
4/7/2021 3:45:00 AM 7.3586 0.6811
4/7/2021 4:00:00 AM 7.3375 0.7333
4/7/2021 4:15:00 AM 7.3292 0.7099
4/7/2021 4:30:00 AM 7.3412 0.7064
4/7/2021 4:45:00 AM 7.3487 0.7031
4/7/2021 5:00:00 AM 7.3253 0.6868
4/7/2021 5:15:00 AM 7.3245 0.6591
4/7/2021 5:30:00 AM 7.3374 0.6721
4/7/2021 5:45:00 AM 7.3458 0.7
4/7/2021 6:00:00 AM 7.2855 0.7255
4/7/2021 6:15:00 AM 7.311 0.633
4/7/2021 6:30:00 AM 7.3305 0.658
4/7/2021 6:45:00 AM 7.3201 0.5943
4/7/2021 7:00:00 AM 7.3035 0.5876
4/7/2021 7:15:00 AM 7.3109 0.5458
4/7/2021 7:30:00 AM 7.327 0.5689
4/7/2021 7:45:00 AM 7.3151 0.6047
4/7/2021 8:00:00 AM 7.3014 0.5568
4/7/2021 8:15:00 AM 7.3098 0.5312
4/7/2021 8:30:00 AM 7.3266 0.5219
4/7/2021 8:45:00 AM 7.3206 0.5998
4/7/2021 9:00:00 AM 7.3056 0.5307
4/7/2021 9:15:00 AM 7.3199 0.6404
4/7/2021 9:30:00 AM 7.3307 0.6508
4/7/2021 9:45:00 AM 7.3144 0.6
4/7/2021 10:00:00 AM 7.3105 0.6295
4/7/2021 10:15:00 AM 7.327 0.5658
4/7/2021 10:30:00 AM 7.3383 0.5346
4/7/2021 10:45:00 AM 7.3213 0.5271
4/7/2021 11:00:00 AM 7.3157 0.5407
4/7/2021 11:15:00 AM 7.331 0.5425
4/7/2021 11:30:00 AM 7.3418 0.541
4/7/2021 11:45:00 AM 7.3346 0.5001
4/7/2021 12:00:00 PM 7.326 0.5172
4/7/2021 12:15:00 PM 7.3465 0.4953
4/7/2021 12:30:00 PM 7.3582 0.5033
4/7/2021 12:45:00 PM 7.3424 0.5144
4/7/2021 1:00:00 PM 7.3379 0.4657
4/7/2021 1:15:00 PM 7.3586 0.4643
4/7/2021 1:30:00 PM 7.3643 0.4738
4/7/2021 1:45:00 PM 7.3555 0.4311
4/7/2021 2:00:00 PM 7.3633 0.4572
4/7/2021 2:15:00 PM 7.3876 0.4638
4/7/2021 2:30:00 PM 7.3841 0.4473
4/7/2021 2:45:00 PM 7.3727 0.4414
4/7/2021 3:00:00 PM 7.3848 0.4734
4/7/2021 3:15:00 PM 7.4079 0.4585
4/7/2021 3:30:00 PM 7.4009 0.4529
4/7/2021 3:45:00 PM 7.3981 0.4515
4/7/2021 4:00:00 PM 7.4205 0.4444
4/7/2021 4:15:00 PM 7.4323 0.4385
4/7/2021 4:30:00 PM 7.4278 0.4427
4/7/2021 4:45:00 PM 7.4361 0.4314
4/7/2021 5:00:00 PM 7.4634 0.4272
4/7/2021 5:15:00 PM 7.4623 0.4679
4/7/2021 5:30:00 PM 7.4528 0.4334
4/7/2021 5:45:00 PM 7.4508 0.4
4/7/2021 6:00:00 PM 7.4937 0.4507
4/7/2021 6:15:00 PM 7.4864 0.4571
4/7/2021 6:30:00 PM 7.4769 0.5352
4/7/2021 6:45:00 PM 7.483 0.5358
4/7/2021 7:00:00 PM 7.4875 0.5523
4/7/2021 7:15:00 PM 7.4816 0.563
4/7/2021 7:30:00 PM 7.4794 0.5714
4/7/2021 7:45:00 PM 7.4867 0.5378
4/7/2021 8:00:00 PM 7.4815 0.5454
4/7/2021 8:15:00 PM 7.4723 0.4694
4/7/2021 8:30:00 PM 7.4751 0.5226
4/7/2021 8:45:00 PM 7.4802 0.5
4/7/2021 9:00:00 PM 7.46 0.5403
4/7/2021 9:15:00 PM 7.454 0.6227
4/7/2021 9:30:00 PM 7.471 0.5982
4/7/2021 9:45:00 PM 7.4649 0.6304
4/7/2021 10:00:00 PM 7.4301 0.8868
4/7/2021 10:15:00 PM 7.4275 0.839
4/7/2021 10:30:00 PM 7.4373 0.7573
4/7/2021 10:45:00 PM 7.4159 0.7504
4/7/2021 11:00:00 PM 7.3987 0.679
4/7/2021 11:15:00 PM 7.4088 0.6083
4/7/2021 11:30:00 PM 7.4097 0.6491
4/7/2021 11:45:00 PM 7.3934 0.6999
4/8/2021 12:00:00 AM 7.3819 0.658
4/8/2021 12:15:00 AM 7.3968 0.6333
4/8/2021 12:30:00 AM 7.3841 0.6692
4/8/2021 12:45:00 AM 7.3667 0.6488
4/8/2021 1:00:00 AM 7.3641 0.6279
4/8/2021 1:15:00 AM 7.3783 0.6355
4/8/2021 1:30:00 AM 7.3584 0.6634
4/8/2021 1:45:00 AM 7.3398 0.6356
4/8/2021 2:00:00 AM 7.3502 0.6578
4/8/2021 2:15:00 AM 7.344 0.6568
4/8/2021 2:30:00 AM 7.3275 0.6683
4/8/2021 2:45:00 AM 7.3248 0.6
4/8/2021 3:00:00 AM 7.3406 0.641
4/8/2021 3:15:00 AM 7.3236 0.6868
4/8/2021 3:30:00 AM 7.3083 0.6926
4/8/2021 3:45:00 AM 7.3156 0.7503
4/8/2021 4:00:00 AM 7.3202 0.7597
4/8/2021 4:15:00 AM 7.305 0.7425
4/8/2021 4:30:00 AM 7.2975 0.6774
4/8/2021 4:45:00 AM 7.3144 0.7437
4/8/2021 5:00:00 AM 7.3088 0.6817
4/8/2021 5:15:00 AM 7.2927 0.6468
4/8/2021 5:30:00 AM 7.2976 0.6383
4/8/2021 5:45:00 AM 7.3122 0.6995
4/8/2021 6:00:00 AM 7.2942 0.6203
4/8/2021 6:15:00 AM 7.285 0.6443
4/8/2021 6:30:00 AM 7.3037 0.5694
4/8/2021 6:45:00 AM 7.2983 0.5314
4/8/2021 7:00:00 AM 7.2836 0.5307
4/8/2021 7:15:00 AM 7.2871 0.553
4/8/2021 7:30:00 AM 7.3117 0.5578
4/8/2021 7:45:00 AM 7.2931 0.5511
4/8/2021 8:00:00 AM 7.2796 0.5636
4/8/2021 8:15:00 AM 7.2842 0.5584
4/8/2021 8:30:00 AM 7.3089 0.5434
4/8/2021 8:45:00 AM 7.3108 0.5999
4/8/2021 9:00:00 AM 7.2839 0.5279
4/8/2021 9:15:00 AM 7.2851 0.5316
4/8/2021 9:30:00 AM 7.3071 0.5401
4/8/2021 9:45:00 AM 7.302 0.5308
4/8/2021 10:00:00 AM 7.2942 0.5259
4/8/2021 10:15:00 AM 7.2938 0.5464
4/8/2021 10:30:00 AM 7.3211 0.5663
4/8/2021 10:45:00 AM 7.3248 0.5362
4/8/2021 11:00:00 AM 7.3142 0.5471
4/8/2021 11:15:00 AM 7.3072 0.5951
4/8/2021 11:30:00 AM 7.3229 0.5424
4/8/2021 11:45:00 AM 7.3388 0.5001
4/8/2021 12:00:00 PM 7.3276 0.5365
4/8/2021 12:15:00 PM 7.3183 0.6419
4/8/2021 12:30:00 PM 7.325 1.2163
4/8/2021 12:45:00 PM 7.3373 0.6753
4/8/2021 1:00:00 PM 7.3356 0.6366
4/8/2021 1:15:00 PM 7.333 0.6561
4/8/2021 1:30:00 PM 7.3337 0.6343
4/8/2021 1:45:00 PM 7.3396 0.6591
4/8/2021 2:00:00 PM 7.3452 0.6485
4/8/2021 2:15:00 PM 7.352 0.5368
4/8/2021 2:30:00 PM 7.3605 0.5643
4/8/2021 2:45:00 PM 7.3686 0.5476
4/8/2021 3:00:00 PM 7.3794 0.6103
4/8/2021 3:15:00 PM 7.3888 0.745
4/8/2021 3:30:00 PM 7.3968 0.6056
4/8/2021 3:45:00 PM 7.4089 0.5339
4/8/2021 4:00:00 PM 7.4178 0.6047
4/8/2021 4:15:00 PM 7.4301 0.5546
4/8/2021 4:30:00 PM 7.44 0.5378
4/8/2021 4:45:00 PM 7.4501 0.5067
4/8/2021 5:00:00 PM 7.4585 0.5132
4/8/2021 5:15:00 PM 7.4605 1.2031
4/8/2021 5:30:00 PM 7.4577 1.6522
4/8/2021 5:45:00 PM 7.462 1.6999
4/8/2021 6:00:00 PM 7.4683 1.1687
4/8/2021 6:15:00 PM 7.4792 0.8311
4/8/2021 6:30:00 PM 7.4875 0.6192
4/8/2021 6:45:00 PM 7.4951 0.5395
4/8/2021 7:00:00 PM 7.4994 0.5542
4/8/2021 7:15:00 PM 7.5022 0.5237
4/8/2021 7:30:00 PM 7.5016 0.5398
4/8/2021 7:45:00 PM 7.5002 0.4872
4/8/2021 8:00:00 PM 7.4979 0.4459
4/8/2021 8:15:00 PM 7.4953 0.437
4/8/2021 8:30:00 PM 7.4909 0.5192
4/8/2021 8:45:00 PM 7.4886 0.5002
4/8/2021 9:00:00 PM 7.4826 0.5352
4/8/2021 9:15:00 PM 7.4759 0.5341
4/8/2021 9:30:00 PM 7.4693 0.5401
4/8/2021 9:45:00 PM 7.4635 0.5344
4/8/2021 10:00:00 PM 7.4535 0.5494
4/8/2021 10:15:00 PM 7.4317 0.862
4/8/2021 10:30:00 PM 7.4152 0.7849
4/8/2021 10:45:00 PM 7.4052 0.7162
4/8/2021 11:00:00 PM 7.3988 0.6906
4/8/2021 11:15:00 PM 7.394 0.6471
4/8/2021 11:30:00 PM 7.3911 0.6576
4/8/2021 11:45:00 PM 7.3864 0.6007
4/9/2021 12:00:00 AM 7.3827 0.6585
4/9/2021 12:15:00 AM 7.3758 0.6314
4/9/2021 12:30:00 AM 7.3677 0.653
4/9/2021 12:45:00 AM 7.3635 0.6403
4/9/2021 1:00:00 AM 7.3516 0.6444
4/9/2021 1:15:00 AM 7.345 0.6437
4/9/2021 1:30:00 AM 7.344 0.6513
4/9/2021 1:45:00 AM 7.3347 0.6335
4/9/2021 2:00:00 AM 7.3314 0.6372
4/9/2021 2:15:00 AM 7.3241 0.6359
4/9/2021 2:30:00 AM 7.3174 0.6365
4/9/2021 2:45:00 AM 7.3108 0.6
4/9/2021 3:00:00 AM 7.3034 0.6327
4/9/2021 3:15:00 AM 7.2975 0.6334
4/9/2021 3:30:00 AM 7.2924 0.6505
4/9/2021 3:45:00 AM 7.2879 0.6127
4/9/2021 4:00:00 AM 7.2847 0.6213
4/9/2021 4:15:00 AM 7.2818 0.649
4/9/2021 4:30:00 AM 7.2806 0.6385
4/9/2021 4:45:00 AM 7.2787 0.6265
4/9/2021 5:00:00 AM 7.2775 0.6533
4/9/2021 5:15:00 AM 7.2754 0.6278
4/9/2021 5:30:00 AM 7.2728 0.6578
4/9/2021 5:45:00 AM 7.2702 0.6003
4/9/2021 6:00:00 AM 7.2671 0.6465
4/9/2021 6:15:00 AM 7.2675 1.0772
4/9/2021 6:30:00 AM 7.2658 0.6584
4/9/2021 6:45:00 AM 7.266 0.5329
4/9/2021 7:00:00 AM 7.2626 0.5382
4/9/2021 7:15:00 AM 7.2588 0.5314
4/9/2021 7:30:00 AM 7.2553 0.5442
4/9/2021 7:45:00 AM 7.2522 0.5405
4/9/2021 8:00:00 AM 7.252 0.5354
4/9/2021 8:15:00 AM 7.252 0.5516
4/9/2021 8:30:00 AM 7.2536 0.5849
4/9/2021 8:45:00 AM 7.2548 0.5994
4/9/2021 9:00:00 AM 7.2572 0.5258
4/9/2021 9:15:00 AM 7.2607 0.5427
4/9/2021 9:30:00 AM 7.266 0.5406
4/9/2021 9:45:00 AM 7.2708 0.5458
4/9/2021 10:00:00 AM 7.2779 0.5562
4/9/2021 10:15:00 AM 7.2823 0.6105
4/9/2021 10:30:00 AM 7.2879 0.69
4/9/2021 10:45:00 AM 7.2934 0.7302
4/9/2021 11:00:00 AM 7.298 0.7665
4/9/2021 11:15:00 AM 7.2998 0.9814
4/9/2021 11:30:00 AM 7.3015 0.9904
4/9/2021 11:45:00 AM 7.3052 0.8006
4/9/2021 12:00:00 PM 7.3127 0.6613
4/9/2021 12:15:00 PM 7.318 0.7464
4/9/2021 12:30:00 PM 7.3228 0.6722
4/9/2021 12:45:00 PM 7.3273 0.5382
4/9/2021 1:00:00 PM 7.3308 0.5523
4/9/2021 1:15:00 PM 7.334 0.5118
4/9/2021 1:30:00 PM 7.3394 0.6605
4/9/2021 1:45:00 PM 7.3463 0.6162
4/9/2021 2:00:00 PM 7.3525 0.5373
4/9/2021 2:15:00 PM 7.3588 0.5477
4/9/2021 2:30:00 PM 7.3663 0.5447
4/9/2021 2:45:00 PM 7.3763 0.5572
4/9/2021 3:00:00 PM 7.3881 0.5474
4/9/2021 3:15:00 PM 7.4005 0.4684
4/9/2021 3:30:00 PM 7.412 0.4688
4/9/2021 3:45:00 PM 7.4235 0.4257
4/9/2021 4:00:00 PM 7.4316 0.5065
4/9/2021 4:15:00 PM 7.4396 0.5453
4/9/2021 4:30:00 PM 7.4497 0.4733
4/9/2021 4:45:00 PM 7.4585 0.4311
4/9/2021 5:00:00 PM 7.468 0.4558
4/9/2021 5:15:00 PM 7.4769 0.4414
4/9/2021 5:30:00 PM 7.485 0.4429
4/9/2021 5:45:00 PM 7.4872 0.4998
4/9/2021 6:00:00 PM 7.4971 0.4334
4/9/2021 6:15:00 PM 7.5031 0.4262
4/9/2021 6:30:00 PM 7.5098 0.4407
4/9/2021 6:45:00 PM 7.5166 0.4387
4/9/2021 7:00:00 PM 7.5201 0.4464
4/9/2021 7:15:00 PM 7.5161 0.4313
4/9/2021 7:30:00 PM 7.5158 0.5313
4/9/2021 7:45:00 PM 7.4998 0.6919
4/9/2021 8:00:00 PM 7.5088 0.569
4/9/2021 8:15:00 PM 7.5078 0.5626
4/9/2021 8:30:00 PM 7.49 0.5521
4/9/2021 8:45:00 PM 7.49 0.5001
4/9/2021 9:00:00 PM 7.4737 0.5461
4/9/2021 9:15:00 PM 7.4731 0.546
4/9/2021 9:30:00 PM 7.4719 0.5429
4/9/2021 9:45:00 PM 7.4659 0.5362
4/9/2021 10:00:00 PM 7.4606 0.5179
4/9/2021 10:15:00 PM 7.4573 0.5299
4/9/2021 10:30:00 PM 7.4474 0.6339
4/9/2021 10:45:00 PM 7.4434 0.6312
4/9/2021 11:00:00 PM 7.4431 0.6324
4/9/2021 11:15:00 PM 7.4352 0.6018
4/9/2021 11:30:00 PM 7.4312 0.5296
4/9/2021 11:45:00 PM 7.4312 0.5998
4/10/2021 12:00:00 AM 7.4128 0.5394
4/10/2021 12:15:00 AM 7.402 0.5385
4/10/2021 12:30:00 AM 7.3943 0.5423
4/10/2021 12:45:00 AM 7.3876 0.5403
4/10/2021 1:00:00 AM 7.3818 0.5324
4/10/2021 1:15:00 AM 7.371 0.5543
4/10/2021 1:30:00 AM 7.3622 0.6136
4/10/2021 1:45:00 AM 7.3508 0.5516
4/10/2021 2:00:00 AM 7.3419 0.5492
4/10/2021 2:15:00 AM 7.332 0.5378
4/10/2021 2:30:00 AM 7.321 0.5793
4/10/2021 2:45:00 AM 7.322 0.5999
4/10/2021 3:00:00 AM 7.3124 0.5931
4/10/2021 3:15:00 AM 7.304 0.5202
4/10/2021 3:30:00 AM 7.2949 0.5449
4/10/2021 3:45:00 AM 7.2888 0.5255
4/10/2021 4:00:00 AM 7.283 0.5509
4/10/2021 4:15:00 AM 7.2772 0.5394
4/10/2021 4:30:00 AM 7.2695 0.5441
4/10/2021 4:45:00 AM 7.2646 0.56
4/10/2021 5:00:00 AM 7.2615 0.5261
4/10/2021 5:15:00 AM 7.2581 0.5345
4/10/2021 5:30:00 AM 7.2559 0.5315
4/10/2021 5:45:00 AM 7.2492 0.5
4/10/2021 6:00:00 AM 7.1798 0.4927
4/10/2021 6:15:00 AM 7.2053 0.4884
4/10/2021 6:30:00 AM 7.2224 0.4769
4/10/2021 6:45:00 AM 7.2345 0.4749
4/10/2021 7:00:00 AM 7.2376 0.4675
4/10/2021 7:15:00 AM 7.2376 0.4603
4/10/2021 7:30:00 AM 7.2376 0.4733
4/10/2021 7:45:00 AM 7.2375 0.4619
4/10/2021 8:00:00 AM 7.2378 0.4446
4/10/2021 8:15:00 AM 7.2394 0.4739
4/10/2021 8:30:00 AM 7.2385 0.4551
4/10/2021 8:45:00 AM 7.2394 0.4997
4/10/2021 9:00:00 AM 7.2423 0.4896
4/10/2021 9:15:00 AM 7.2437 0.4718
4/10/2021 9:30:00 AM 7.2471 0.4673
4/10/2021 9:45:00 AM 7.2501 0.468
4/10/2021 10:00:00 AM 7.253 0.4937
4/10/2021 10:15:00 AM 7.2568 0.4604
4/10/2021 10:30:00 AM 7.2619 0.4539
4/10/2021 10:45:00 AM 7.2665 0.4417
4/10/2021 11:00:00 AM 7.2713 0.4358
4/10/2021 11:15:00 AM 7.2777 0.4361
4/10/2021 11:30:00 AM 7.2839 0.534
4/10/2021 11:45:00 AM 7.287 0.6
4/10/2021 12:00:00 PM 7.2982 0.547
4/10/2021 12:15:00 PM 7.3035 0.4919
4/10/2021 12:30:00 PM 7.311 0.5344
4/10/2021 12:45:00 PM 7.318 0.549
4/10/2021 1:00:00 PM 7.3246 0.6424
4/10/2021 1:15:00 PM 7.3341 0.6234
4/10/2021 1:30:00 PM 7.3475 0.5312
4/10/2021 1:45:00 PM 7.3602 0.5575
4/10/2021 2:00:00 PM 7.3721 0.5507
4/10/2021 2:15:00 PM 7.3823 0.5494
4/10/2021 2:30:00 PM 7.3939 0.541
4/10/2021 2:45:00 PM 7.4069 0.5048
4/10/2021 3:00:00 PM 7.4219 0.469
4/10/2021 3:15:00 PM 7.4388 0.471
4/10/2021 3:30:00 PM 7.455 0.4498
4/10/2021 3:45:00 PM 7.4718 0.4289
4/10/2021 4:00:00 PM 7.4889 0.5789
4/10/2021 4:15:00 PM 7.5086 0.5481
4/10/2021 4:30:00 PM 7.5258 0.5409
4/10/2021 4:45:00 PM 7.5447 0.5619
4/10/2021 5:00:00 PM 7.5642 0.5311
4/10/2021 5:15:00 PM 7.584 0.51
4/10/2021 5:30:00 PM 7.5992 0.5557
4/10/2021 5:45:00 PM 7.6048 0.4999
4/10/2021 6:00:00 PM 7.6268 0.7483
4/10/2021 6:15:00 PM 7.6409 0.6917
4/10/2021 6:30:00 PM 7.6567 0.5577
4/10/2021 6:45:00 PM 7.668 0.4728
4/10/2021 7:00:00 PM 7.6746 0.4115
4/10/2021 7:15:00 PM 7.681 0.4418
4/10/2021 7:30:00 PM 7.6887 0.4484
4/10/2021 7:45:00 PM 7.6908 0.4367
4/10/2021 8:00:00 PM 7.691 0.4492
4/10/2021 8:15:00 PM 7.6894 0.5027
4/10/2021 8:30:00 PM 7.6831 0.5473
4/10/2021 8:45:00 PM 7.6832 0.6
4/10/2021 9:00:00 PM 7.67 0.4801
4/10/2021 9:15:00 PM 7.6631 0.467
4/10/2021 9:30:00 PM 7.6558 0.4329
4/10/2021 9:45:00 PM 7.6478 0.4493
4/10/2021 10:00:00 PM 7.5966 0.8002
4/10/2021 10:15:00 PM 7.606 0.5874
4/10/2021 10:30:00 PM 7.5937 0.5241
4/10/2021 10:45:00 PM 7.5822 0.5317
4/10/2021 11:00:00 PM 7.5582 0.5487
4/10/2021 11:15:00 PM 7.5362 0.5616
4/10/2021 11:30:00 PM 7.5234 0.5488
4/10/2021 11:45:00 PM 7.5166 0.5999
4/11/2021 12:00:00 AM 7.4963 0.5402
4/11/2021 12:15:00 AM 7.4814 0.541
4/11/2021 12:30:00 AM 7.4641 0.5462
4/11/2021 12:45:00 AM 7.4599 0.5564
4/11/2021 1:00:00 AM 7.4454 0.5398
4/11/2021 1:15:00 AM 7.4239 0.5407
4/11/2021 1:30:00 AM 7.4076 0.5564
4/11/2021 1:45:00 AM 7.3925 0.5416
4/11/2021 2:00:00 AM 7.3758 0.5895
4/11/2021 2:15:00 AM 7.3641 0.559
4/11/2021 2:30:00 AM 7.3543 0.5446
4/11/2021 2:45:00 AM 7.3542 0.5002
4/11/2021 3:00:00 AM 7.3339 0.6003
4/11/2021 3:15:00 AM 7.3206 0.537
4/11/2021 3:30:00 AM 7.3065 0.5425
4/11/2021 3:45:00 AM 7.2975 0.5458
4/11/2021 4:00:00 AM 7.2886 0.5427
4/11/2021 4:15:00 AM 7.2811 0.5321
4/11/2021 4:30:00 AM 7.2755 0.5453
4/11/2021 4:45:00 AM 7.2693 0.5253
4/11/2021 5:00:00 AM 7.2637 0.5401
4/11/2021 5:15:00 AM 7.2582 0.5375
4/11/2021 5:30:00 AM 7.254 0.5407
4/11/2021 5:45:00 AM 7.2548 0.5999
4/11/2021 6:00:00 AM 7.2502 0.5432
4/11/2021 6:15:00 AM 7.2522 0.4468
4/11/2021 6:30:00 AM 7.2484 0.4467
4/11/2021 6:45:00 AM 7.2455 0.4233
4/11/2021 7:00:00 AM 7.2427 0.3955
4/11/2021 7:15:00 AM 7.2388 0.4249
4/11/2021 7:30:00 AM 7.2381 0.4271
4/11/2021 7:45:00 AM 7.2373 0.4291
4/11/2021 8:00:00 AM 7.2376 0.436
4/11/2021 8:15:00 AM 7.2379 0.45
4/11/2021 8:30:00 AM 7.2422 0.4475
4/11/2021 8:45:00 AM 7.2422 0.4002
4/11/2021 9:00:00 AM 7.2489 0.4498
4/11/2021 9:15:00 AM 7.2545 0.4467
4/11/2021 9:30:00 AM 7.2628 0.4576
4/11/2021 9:45:00 AM 7.274 0.4447
4/11/2021 10:00:00 AM 7.2818 0.4459
4/11/2021 10:15:00 AM 7.2897 0.4392
4/11/2021 10:30:00 AM 7.2983 0.4681
4/11/2021 10:45:00 AM 7.3052 0.5013
4/11/2021 11:00:00 AM 7.3146 0.4255
4/11/2021 11:15:00 AM 7.3246 0.4374
4/11/2021 11:30:00 AM 7.3342 0.4557
4/11/2021 11:45:00 AM 7.3402 0.4
4/11/2021 12:00:00 PM 7.3524 0.402
4/11/2021 12:15:00 PM 7.3624 0.3939
4/11/2021 12:30:00 PM 7.3736 0.411
4/11/2021 12:45:00 PM 7.384 0.4103
4/11/2021 1:00:00 PM 7.3948 0.3807
4/11/2021 1:15:00 PM 7.4032 0.3601
4/11/2021 1:30:00 PM 7.4141 0.3925
4/11/2021 1:45:00 PM 7.425 0.3845
4/11/2021 2:00:00 PM 7.4411 0.3922
4/11/2021 2:15:00 PM 7.4574 0.3934
4/11/2021 2:30:00 PM 7.4728 0.3837
4/11/2021 2:45:00 PM 7.4892 0.3767
4/11/2021 3:00:00 PM 7.5038 0.3926
4/11/2021 3:15:00 PM 7.5196 0.359
4/11/2021 3:30:00 PM 7.5375 0.3773
4/11/2021 3:45:00 PM 7.5555 0.4109
4/11/2021 4:00:00 PM 7.5733 0.4162
4/11/2021 4:15:00 PM 7.5882 0.3899
4/11/2021 4:30:00 PM 7.6039 0.3819
4/11/2021 4:45:00 PM 7.622 0.385
4/11/2021 5:00:00 PM 7.6345 0.3921
4/11/2021 5:15:00 PM 7.6438 0.3838
4/11/2021 5:30:00 PM 7.6494 0.4383
4/11/2021 5:45:00 PM 7.6552 0.4002
4/11/2021 6:00:00 PM 7.6525 0.3651
4/11/2021 6:15:00 PM 7.6497 0.387
4/11/2021 6:30:00 PM 7.6439 0.3734
4/11/2021 6:45:00 PM 7.6356 0.3833
4/11/2021 7:00:00 PM 7.6283 0.3761
4/11/2021 7:15:00 PM 7.6165 0.3743
4/11/2021 7:30:00 PM 7.5987 0.4642
4/11/2021 7:45:00 PM 7.576 0.5189
4/11/2021 8:00:00 PM 7.559 0.4925
4/11/2021 8:15:00 PM 7.5449 0.4524
4/11/2021 8:30:00 PM 7.5274 0.5468
4/11/2021 8:45:00 PM 7.5208 0.5016
4/11/2021 9:00:00 PM 7.4944 0.5412
4/11/2021 9:15:00 PM 7.4793 0.59
4/11/2021 9:30:00 PM 7.4662 0.6756
4/11/2021 9:45:00 PM 7.4503 0.8297
4/11/2021 10:00:00 PM 7.421 1.1171
4/11/2021 10:15:00 PM 7.4262 1.0687
4/11/2021 10:30:00 PM 7.4201 1.0573
4/11/2021 10:45:00 PM 7.4135 1.01
4/11/2021 11:00:00 PM 7.4051 0.972
4/11/2021 11:15:00 PM 7.3968 0.9267
4/11/2021 11:30:00 PM 7.3823 0.9369
4/11/2021 11:45:00 PM 7.3751 0.9193
4/12/2021 12:00:00 AM 7.3619 0.8662
4/12/2021 12:15:00 AM 7.3482 0.83
4/12/2021 12:30:00 AM 7.3374 0.8085
4/12/2021 12:45:00 AM 7.3276 0.7427
4/12/2021 1:00:00 AM 7.317 0.732
4/12/2021 1:15:00 AM 7.3081 0.7284
4/12/2021 1:30:00 AM 7.297 0.7222
4/12/2021 1:45:00 AM 7.287 0.6673
4/12/2021 2:00:00 AM 7.2767 0.6831
4/12/2021 2:15:00 AM 7.2662 0.6344
4/12/2021 2:30:00 AM 7.2546 0.6421
4/12/2021 2:45:00 AM 7.2534 0.6
4/12/2021 3:00:00 AM 7.2414 0.6573
4/12/2021 3:15:00 AM 7.2354 0.6356
4/12/2021 3:30:00 AM 7.2319 0.593
4/12/2021 3:45:00 AM 7.2243 0.6569
4/12/2021 4:00:00 AM 7.2214 0.6289
4/12/2021 4:15:00 AM 7.2194 0.6418
4/12/2021 4:30:00 AM 7.2183 0.5866
4/12/2021 4:45:00 AM 7.2138 0.5494
4/12/2021 5:00:00 AM 7.2132 0.5531
4/12/2021 5:15:00 AM 7.2095 0.626
4/12/2021 5:30:00 AM 7.2072 0.5899
4/12/2021 5:45:00 AM 7.2058 0.602
4/12/2021 6:00:00 AM 7.2111 0.5377
4/12/2021 6:15:00 AM 7.2127 0.5593
4/12/2021 6:30:00 AM 7.2052 0.5489
4/12/2021 6:45:00 AM 7.2021 0.5486
4/12/2021 7:00:00 AM 7.2036 0.5412
4/12/2021 7:15:00 AM 7.2037 0.529
4/12/2021 7:30:00 AM 7.2038 0.5255
4/12/2021 7:45:00 AM 7.2024 0.5294
4/12/2021 8:00:00 AM 7.2027 0.5496
4/12/2021 8:15:00 AM 7.202 0.5655
4/12/2021 8:30:00 AM 7.2007 0.5667
4/12/2021 8:45:00 AM 7.1983 0.5856
4/12/2021 9:00:00 AM 7.1999 0.6965
4/12/2021 9:15:00 AM 7.2029 0.654
4/12/2021 9:30:00 AM 7.2038 0.6417
4/12/2021 9:45:00 AM 7.2073 0.7119
4/12/2021 10:00:00 AM 7.2077 0.8941
4/12/2021 10:15:00 AM 7.2117 0.6951
4/12/2021 10:30:00 AM 7.2162 0.6458
4/12/2021 10:45:00 AM 7.2207 0.644
4/12/2021 11:00:00 AM 7.2259 0.6048
4/12/2021 11:15:00 AM 7.2311 0.5531
4/12/2021 11:30:00 AM 7.2357 0.5757
4/12/2021 11:45:00 AM 7.2391 0.5
4/12/2021 12:00:00 PM 7.2468 0.5303
4/12/2021 12:15:00 PM 7.2523 0.5162
4/12/2021 12:30:00 PM 7.2577 0.5412
4/12/2021 12:45:00 PM 7.2645 0.5437
4/12/2021 1:00:00 PM 7.2719 0.5476
4/12/2021 1:15:00 PM 7.2784 0.5663
4/12/2021 1:30:00 PM 7.2856 0.5307
4/12/2021 1:45:00 PM 7.2947 0.5517
4/12/2021 2:00:00 PM 7.3046 0.5933
4/12/2021 2:15:00 PM 7.311 0.7356
4/12/2021 2:30:00 PM 7.3189 0.7393
4/12/2021 2:45:00 PM 7.3302 0.6627
4/12/2021 3:00:00 PM 7.341 0.6122
4/12/2021 3:15:00 PM 7.3524 0.5447
4/12/2021 3:30:00 PM 7.3651 0.4884
4/12/2021 3:45:00 PM 7.3767 0.597
4/12/2021 4:00:00 PM 7.386 0.6261
4/12/2021 4:15:00 PM 7.397 0.5369
4/12/2021 4:30:00 PM 7.4091 0.4701
4/12/2021 4:45:00 PM 7.4169 0.4346
4/12/2021 5:00:00 PM 7.4235 0.4393
4/12/2021 5:15:00 PM 7.43 0.4421
4/12/2021 5:30:00 PM 7.4368 0.4435
4/12/2021 5:45:00 PM 7.4409 0.4003
4/12/2021 6:00:00 PM 7.4449 0.4389
4/12/2021 6:15:00 PM 7.4466 0.4594
4/12/2021 6:30:00 PM 7.4498 0.4565
4/12/2021 6:45:00 PM 7.4499 0.435
4/12/2021 7:00:00 PM 7.4506 0.452
4/12/2021 7:15:00 PM 7.4496 0.4414
4/12/2021 7:30:00 PM 7.4463 0.4479
4/12/2021 7:45:00 PM 7.4405 0.4444
4/12/2021 8:00:00 PM 7.4352 0.4514
4/12/2021 8:15:00 PM 7.4006 0.6793
4/12/2021 8:30:00 PM 7.4066 0.603
4/12/2021 8:45:00 PM 7.4157 0.595
4/12/2021 9:00:00 PM 7.4125 0.5399
4/12/2021 9:15:00 PM 7.4066 0.4639
4/12/2021 9:30:00 PM 7.4017 0.4912
4/12/2021 9:45:00 PM 7.396 0.4854
4/12/2021 10:00:00 PM 7.3839 0.4929
4/12/2021 10:15:00 PM 7.3747 0.4471
4/12/2021 10:30:00 PM 7.3638 0.4829
4/12/2021 10:45:00 PM 7.3526 0.4749
4/12/2021 11:00:00 PM 7.3412 0.5262
4/12/2021 11:15:00 PM 7.3314 0.5484
4/12/2021 11:30:00 PM 7.3207 0.5341
4/12/2021 11:45:00 PM 7.3122 0.5992
4/13/2021 12:00:00 AM 7.3003 0.5463
4/13/2021 12:15:00 AM 7.2898 0.5361
4/13/2021 12:30:00 AM 7.2774 0.6075
4/13/2021 12:45:00 AM 7.2675 0.6526
4/13/2021 1:00:00 AM 7.2592 0.7149
4/13/2021 1:15:00 AM 7.2487 0.8673
4/13/2021 1:30:00 AM 7.2379 1.1645
4/13/2021 1:45:00 AM 7.2241 1.6316
4/13/2021 2:00:00 AM 7.2122 1.842
4/13/2021 2:15:00 AM 7.199 1.8685
4/13/2021 2:30:00 AM 7.1905 2.074
4/13/2021 2:45:00 AM 7.1848 2.3
4/13/2021 3:00:00 AM 7.1737 2.2406
4/13/2021 3:15:00 AM 7.1674 2.1704
4/13/2021 3:30:00 AM 7.1586 2.1816
4/13/2021 3:45:00 AM 7.1549 2.0172
4/13/2021 4:00:00 AM 7.1501 1.8653
4/13/2021 4:15:00 AM 7.1437 1.7402
4/13/2021 4:30:00 AM 7.1357 1.6191
4/13/2021 4:45:00 AM 7.1357 1.5223
4/13/2021 5:00:00 AM 7.128 1.4502
4/13/2021 5:15:00 AM 7.126 1.2752
4/13/2021 5:30:00 AM 7.1313 1.2432
4/13/2021 5:45:00 AM 7.133 1.2003
4/13/2021 6:00:00 AM 7.1002 1.1078
4/13/2021 6:15:00 AM 7.1243 0.9805
4/13/2021 6:30:00 AM 7.1309 0.95
4/13/2021 6:45:00 AM 7.1309 0.8927
4/13/2021 7:00:00 AM 7.1309 0.8513
4/13/2021 7:15:00 AM 7.1309 0.8423
4/13/2021 7:30:00 AM 7.1308 0.8362
4/13/2021 7:45:00 AM 7.1313 0.7347
4/13/2021 8:00:00 AM 7.1358 0.743
4/13/2021 8:15:00 AM 7.1393 0.6815
4/13/2021 8:30:00 AM 7.1471 0.6483
4/13/2021 8:45:00 AM 7.1484 0.6998
4/13/2021 9:00:00 AM 7.1602 0.6436
4/13/2021 9:15:00 AM 7.1678 0.6373
4/13/2021 9:30:00 AM 7.1741 0.665
4/13/2021 9:45:00 AM 7.1814 0.6444
4/13/2021 10:00:00 AM 7.1872 0.6643
4/13/2021 10:15:00 AM 7.1896 0.6726
4/13/2021 10:30:00 AM 7.1951 0.6361
4/13/2021 10:45:00 AM 7.2016 0.6678
4/13/2021 11:00:00 AM 7.2067 0.6581
4/13/2021 11:15:00 AM 7.2134 0.6621
4/13/2021 11:30:00 AM 7.2194 0.6475
4/13/2021 11:45:00 AM 7.224 0.6998
4/13/2021 12:00:00 PM 7.2298 0.6273
4/13/2021 12:15:00 PM 7.2359 0.6414
4/13/2021 12:30:00 PM 7.2403 0.6708
4/13/2021 12:45:00 PM 7.2484 0.6304
4/13/2021 1:00:00 PM 7.2589 0.6363
4/13/2021 1:15:00 PM 7.2712 0.6616
4/13/2021 1:30:00 PM 7.2819 0.6484
4/13/2021 1:45:00 PM 7.2948 0.6198
4/13/2021 2:00:00 PM 7.3147 0.6393
4/13/2021 2:15:00 PM 7.3371 0.6195
4/13/2021 2:30:00 PM 7.3562 0.6219
4/13/2021 2:45:00 PM 7.3759 0.6381
4/13/2021 3:00:00 PM 7.3981 0.5956
4/13/2021 3:15:00 PM 7.4266 0.547
4/13/2021 3:30:00 PM 7.4627 0.5446
4/13/2021 3:45:00 PM 7.4913 0.5638
4/13/2021 4:00:00 PM 7.5099 0.5467
4/13/2021 4:15:00 PM 7.5253 0.5232
4/13/2021 4:30:00 PM 7.5416 0.5195
4/13/2021 4:45:00 PM 7.5623 0.5253
4/13/2021 5:00:00 PM 7.5864 0.5328
4/13/2021 5:15:00 PM 7.6125 0.5573
4/13/2021 5:30:00 PM 7.6316 0.5125
4/13/2021 5:45:00 PM 7.6342 0.5001
4/13/2021 6:00:00 PM 7.6614 0.4826
4/13/2021 6:15:00 PM 7.6769 0.4475
4/13/2021 6:30:00 PM 7.6877 0.4133
4/13/2021 6:45:00 PM 7.6944 0.4215
4/13/2021 7:00:00 PM 7.6991 0.4477
4/13/2021 7:15:00 PM 7.701 0.4293
4/13/2021 7:30:00 PM 7.6985 0.4381
4/13/2021 7:45:00 PM 7.6944 0.4471
4/13/2021 8:00:00 PM 7.6865 0.4613
4/13/2021 8:15:00 PM 7.6254 0.6983
4/13/2021 8:30:00 PM 7.6554 0.6333
4/13/2021 8:45:00 PM 7.6538 0.5997
4/13/2021 9:00:00 PM 7.6381 0.5491
4/13/2021 9:15:00 PM 7.6274 0.558
4/13/2021 9:30:00 PM 7.6161 0.5182
4/13/2021 9:45:00 PM 7.6082 0.4967
4/13/2021 10:00:00 PM 7.5993 0.4806
4/13/2021 10:15:00 PM 7.5925 0.4896
4/13/2021 10:30:00 PM 7.5775 0.4764
4/13/2021 10:45:00 PM 7.5664 0.4903
4/13/2021 11:00:00 PM 7.5491 0.5237
4/13/2021 11:15:00 PM 7.534 0.4624
4/13/2021 11:30:00 PM 7.5175 0.4636
4/13/2021 11:45:00 PM 7.5138 0.5
4/14/2021 12:00:00 AM 7.4813 0.4792
4/14/2021 12:15:00 AM 7.4654 0.4347
4/14/2021 12:30:00 AM 7.4452 0.4883
4/14/2021 12:45:00 AM 7.427 0.5606
4/14/2021 1:00:00 AM 7.4085 0.5028
4/14/2021 1:15:00 AM 7.3879 0.4412
4/14/2021 1:30:00 AM 7.3721 0.4503
4/14/2021 1:45:00 AM 7.3572 0.4446
4/14/2021 2:00:00 AM 7.3421 0.4308
4/14/2021 2:15:00 AM 7.3301 0.4333
4/14/2021 2:30:00 AM 7.3161 0.4428
4/14/2021 2:45:00 AM 7.3066 0.4998
4/14/2021 3:00:00 AM 7.2973 0.5077
4/14/2021 3:15:00 AM 7.2907 0.5145
4/14/2021 3:30:00 AM 7.2807 0.5427
4/14/2021 3:45:00 AM 7.2764 0.5688
4/14/2021 4:00:00 AM 7.2713 0.5469
4/14/2021 4:15:00 AM 7.2654 0.5272
4/14/2021 4:30:00 AM 7.2604 0.5313
4/14/2021 4:45:00 AM 7.2567 0.5046
4/14/2021 5:00:00 AM 7.255 0.5027
4/14/2021 5:15:00 AM 7.2541 0.4946
4/14/2021 5:30:00 AM 7.251 0.5367
4/14/2021 5:45:00 AM 7.245 0.5001
4/14/2021 6:00:00 AM 7.246 0.4295
4/14/2021 6:15:00 AM 7.243 0.4607
4/14/2021 6:30:00 AM 7.2397 0.4493
4/14/2021 6:45:00 AM 7.2367 0.4395
4/14/2021 7:00:00 AM 7.2338 0.4402
4/14/2021 7:15:00 AM 7.2296 0.4324
4/14/2021 7:30:00 AM 7.227 0.3921
4/14/2021 7:45:00 AM 7.1843 0.4349
4/14/2021 8:00:00 AM 7.2146 0.4076
4/14/2021 8:15:00 AM 7.2353 0.4186
4/14/2021 8:30:00 AM 7.2393 0.3933
4/14/2021 8:45:00 AM 7.2464 0.3998
4/14/2021 9:00:00 AM 7.2481 0.3283
4/14/2021 9:15:00 AM 7.2523 0.3492
4/14/2021 9:30:00 AM 7.2524 0.3435
4/14/2021 9:45:00 AM 7.2102 0.3446
4/14/2021 10:00:00 AM 7.2613 0.3465
4/14/2021 10:15:00 AM 7.2712 0.3487
4/14/2021 10:30:00 AM 7.2773 0.4045
4/14/2021 10:45:00 AM 7.2806 0.4242
4/14/2021 11:00:00 AM 7.2858 0.3501
4/14/2021 11:15:00 AM 7.2428 0.3353
4/14/2021 11:30:00 AM 7.2908 0.344
4/14/2021 11:45:00 AM 7.3024 0.3991
4/14/2021 12:00:00 PM 7.5452 0.3398
4/14/2021 12:15:00 PM 7.543 0.3373
4/14/2021 12:30:00 PM 7.5407 0.3348
4/14/2021 12:45:00 PM 7.5385 0.3322
4/14/2021 1:00:00 PM 7.5362 0.3297
4/14/2021 1:15:00 PM 7.534 0.3272
4/14/2021 1:30:00 PM 7.5317 0.3247
4/14/2021 1:45:00 PM 7.5295 0.3222
4/14/2021 2:00:00 PM 7.5273 0.3197
4/14/2021 2:15:00 PM 7.525 0.3172
4/14/2021 2:30:00 PM 7.5228 0.3147
4/14/2021 2:45:00 PM 7.5205 0.3122
4/14/2021 3:00:00 PM 7.5183 0.3097
4/14/2021 3:15:00 PM 7.516 0.3072
4/14/2021 3:30:00 PM 7.5138 0.3047
4/14/2021 3:45:00 PM 7.5115 0.3022
4/14/2021 4:00:00 PM 7.5139 0.3516
4/14/2021 4:15:00 PM 7.5235 0.3816
4/14/2021 4:30:00 PM 7.5333 0.3633
4/14/2021 4:45:00 PM 7.543 0.345
4/14/2021 5:00:00 PM 7.5528 0.3267
4/14/2021 5:15:00 PM 7.5625 0.31
4/14/2021 5:30:00 PM 7.5679 0.3503
4/14/2021 5:45:00 PM 7.5743 0.3411
4/14/2021 6:00:00 PM 7.5793 0.3218
4/14/2021 6:15:00 PM 7.5813 0.3453
4/14/2021 6:30:00 PM 7.5872 0.3399
4/14/2021 6:45:00 PM 7.5845 0.3558
4/14/2021 7:00:00 PM 7.5845 0.3512
4/14/2021 7:15:00 PM 7.5781 0.3533
4/14/2021 7:30:00 PM 7.5638 0.343
4/14/2021 7:45:00 PM 7.5409 0.3444
4/14/2021 8:00:00 PM 7.525 0.356
4/14/2021 8:15:00 PM 7.5078 0.3527
4/14/2021 8:30:00 PM 7.4807 0.334
4/14/2021 8:45:00 PM 7.4676 0.4
4/14/2021 9:00:00 PM 7.4463 0.3276
4/14/2021 9:15:00 PM 7.426 0.3305
4/14/2021 9:30:00 PM 7.4069 0.325
4/14/2021 9:45:00 PM 7.3853 0.3438
4/14/2021 10:00:00 PM 7.3465 0.588
4/14/2021 10:15:00 PM 7.3484 0.4969
4/14/2021 10:30:00 PM 7.3409 0.4346
4/14/2021 10:45:00 PM 7.3356 0.4367
4/14/2021 11:00:00 PM 7.3305 0.4411
4/14/2021 11:15:00 PM 7.3257 0.677
4/14/2021 11:30:00 PM 7.3222 0.8151
4/14/2021 11:45:00 PM 7.322 0.4
4/15/2021 12:00:00 AM 7.3202 0.4355
4/15/2021 12:15:00 AM 7.3108 0.43
4/15/2021 12:30:00 AM 7.2997 0.3833
4/15/2021 12:45:00 AM 7.2938 0.327
4/15/2021 1:00:00 AM 7.2866 0.3311
4/15/2021 1:15:00 AM 7.2776 0.3351
4/15/2021 1:30:00 AM 7.2804 0.3423
4/15/2021 1:45:00 AM 7.2747 0.3597
4/15/2021 2:00:00 AM 7.2671 0.345
4/15/2021 2:15:00 AM 7.261 0.3642
4/15/2021 2:30:00 AM 7.2539 0.3514
4/15/2021 2:45:00 AM 7.2534 0.3999
4/15/2021 3:00:00 AM 7.2412 0.4383
4/15/2021 3:15:00 AM 7.2341 0.4732
4/15/2021 3:30:00 AM 7.2312 0.4756
4/15/2021 3:45:00 AM 7.2265 0.4433
4/15/2021 4:00:00 AM 7.2236 0.4592
4/15/2021 4:15:00 AM 7.2181 0.4234
4/15/2021 4:30:00 AM 7.2163 0.409
4/15/2021 4:45:00 AM 7.2135 0.4163
4/15/2021 5:00:00 AM 7.2119 0.3864
4/15/2021 5:15:00 AM 7.2072 0.4202
4/15/2021 5:30:00 AM 7.2072 0.41
4/15/2021 5:45:00 AM 7.2072 0.4
4/15/2021 6:00:00 AM 7.1856 0.3659
4/15/2021 6:15:00 AM 7.1918 0.5704
4/15/2021 6:30:00 AM 7.1929 0.3368
4/15/2021 6:45:00 AM 7.19 0.3314
4/15/2021 7:00:00 AM 7.1876 0.3365
4/15/2021 7:15:00 AM 7.1828 0.3471
4/15/2021 7:30:00 AM 7.1782 0.4371
4/15/2021 7:45:00 AM 7.1758 0.3411
4/15/2021 8:00:00 AM 7.1735 0.3323
4/15/2021 8:15:00 AM 7.1728 0.3286
4/15/2021 8:30:00 AM 7.1753 0.3962
4/15/2021 8:45:00 AM 7.1764 0.4001
4/15/2021 9:00:00 AM 7.1757 0.3626
4/15/2021 9:15:00 AM 7.1754 0.3172
4/15/2021 9:30:00 AM 7.1753 0.3273
4/15/2021 9:45:00 AM 7.1798 0.3332
4/15/2021 10:00:00 AM 7.1809 0.3388
4/15/2021 10:15:00 AM 7.1855 0.3179
4/15/2021 10:30:00 AM 7.1897 0.3288
4/15/2021 10:45:00 AM 7.1969 0.3246
4/15/2021 11:00:00 AM 7.2084 0.3333
4/15/2021 11:15:00 AM 7.2195 0.3496
4/15/2021 11:30:00 AM 7.2287 0.4202
4/15/2021 11:45:00 AM 7.2338 0.4999
4/15/2021 12:00:00 PM 7.2464 0.4047
4/15/2021 12:15:00 PM 7.258 0.3312
4/15/2021 12:30:00 PM 7.265 0.3265
4/15/2021 12:45:00 PM 7.2697 0.337
4/15/2021 1:00:00 PM 7.2711 0.3433
4/15/2021 1:15:00 PM 7.2705 0.3331
4/15/2021 1:30:00 PM 7.2724 0.4217
4/15/2021 1:45:00 PM 7.2791 0.3461
4/15/2021 2:00:00 PM 7.2866 0.33
4/15/2021 2:15:00 PM 7.2942 0.3495
4/15/2021 2:30:00 PM 7.3038 0.3768
4/15/2021 2:45:00 PM 7.3119 0.4473
4/15/2021 3:00:00 PM 7.3177 0.4545
4/15/2021 3:15:00 PM 7.3251 0.4432
4/15/2021 3:30:00 PM 7.3322 0.4284
4/15/2021 3:45:00 PM 7.3477 0.4457
4/15/2021 4:00:00 PM 7.3566 0.4401
4/15/2021 4:15:00 PM 7.3649 0.462
4/15/2021 4:30:00 PM 7.3727 0.5286
4/15/2021 4:45:00 PM 7.3788 0.4763
4/15/2021 5:00:00 PM 7.3827 0.4304
4/15/2021 5:15:00 PM 7.3826 0.4378
4/15/2021 5:30:00 PM 7.387 0.4526
4/15/2021 5:45:00 PM 7.3864 0.4
4/15/2021 6:00:00 PM 7.3896 0.3655
4/15/2021 6:15:00 PM 7.3895 0.3341
4/15/2021 6:30:00 PM 7.387 0.3179
4/15/2021 6:45:00 PM 7.387 0.449
4/15/2021 7:00:00 PM 7.3817 0.5777
4/15/2021 7:15:00 PM 7.3779 0.5842
4/15/2021 7:30:00 PM 7.3729 0.4383
4/15/2021 7:45:00 PM 7.3675 0.3245
4/15/2021 8:00:00 PM 7.3623 0.345
4/15/2021 8:15:00 PM 7.3559 0.3467
4/15/2021 8:30:00 PM 7.3521 0.3472
4/15/2021 8:45:00 PM 7.3486 0.2002
4/15/2021 9:00:00 PM 7.3399 0.3462
4/15/2021 9:15:00 PM 7.3294 0.3241
4/15/2021 9:30:00 PM 7.3187 0.344
4/15/2021 9:45:00 PM 7.3062 0.3311
4/15/2021 10:00:00 PM 7.284 0.4804
4/15/2021 10:15:00 PM 7.2838 0.4432
4/15/2021 10:30:00 PM 7.2841 0.4498
4/15/2021 10:45:00 PM 7.2765 0.3769
4/15/2021 11:00:00 PM 7.2685 0.3819
4/15/2021 11:15:00 PM 7.2606 0.3622
4/15/2021 11:30:00 PM 7.2548 0.3567
4/15/2021 11:45:00 PM 7.2492 0.3
4/16/2021 12:00:00 AM 7.2433 0.3462
4/16/2021 12:15:00 AM 7.2335 0.351
4/16/2021 12:30:00 AM 7.2197 0.451
4/16/2021 12:45:00 AM 7.2112 0.3517
4/16/2021 1:00:00 AM 7.2024 0.3331
4/16/2021 1:15:00 AM 7.1932 0.3422
4/16/2021 1:30:00 AM 7.1859 0.3431
4/16/2021 1:45:00 AM 7.1764 0.3172
4/16/2021 2:00:00 AM 7.166 0.3466
4/16/2021 2:15:00 AM 7.1561 0.3368
4/16/2021 2:30:00 AM 7.1456 0.4069
4/16/2021 2:45:00 AM 7.14 0.4
4/16/2021 3:00:00 AM 7.135 0.4071
4/16/2021 3:15:00 AM 7.1302 0.4013
4/16/2021 3:30:00 AM 7.128 0.39
4/16/2021 3:45:00 AM 7.1252 0.3588
4/16/2021 4:00:00 AM 7.1211 0.541
4/16/2021 4:15:00 AM 7.1232 0.4596
4/16/2021 4:30:00 AM 7.1254 0.4202
4/16/2021 4:45:00 AM 7.1295 0.3748
4/16/2021 5:00:00 AM 7.1287 0.4051
4/16/2021 5:15:00 AM 7.1231 0.409
4/16/2021 5:30:00 AM 7.1204 0.4076
4/16/2021 5:45:00 AM 7.1148 0.4
4/16/2021 6:00:00 AM 7.0316 0.386
4/16/2021 6:15:00 AM 7.0977 0.3522
4/16/2021 6:30:00 AM 7.1096 0.364
4/16/2021 6:45:00 AM 7.1115 0.3243
4/16/2021 7:00:00 AM 7.1119 0.339
4/16/2021 7:15:00 AM 7.1115 0.3282
4/16/2021 7:30:00 AM 7.111 0.3339
4/16/2021 7:45:00 AM 7.1104 0.3261
4/16/2021 8:00:00 AM 7.112 0.3313
4/16/2021 8:15:00 AM 7.1149 0.3383
4/16/2021 8:30:00 AM 7.1209 0.3378
4/16/2021 8:45:00 AM 7.1232 0.3
4/16/2021 9:00:00 AM 7.1376 0.3465
4/16/2021 9:15:00 AM 7.1457 0.3343
4/16/2021 9:30:00 AM 7.1553 0.3359
4/16/2021 9:45:00 AM 7.1666 0.3482
4/16/2021 10:00:00 AM 7.1808 0.3427
4/16/2021 10:15:00 AM 7.191 0.3685
4/16/2021 10:30:00 AM 7.2034 0.4356
4/16/2021 10:45:00 AM 7.2145 0.3635
4/16/2021 11:00:00 AM 7.2272 0.3605
4/16/2021 11:15:00 AM 7.2374 0.4465
4/16/2021 11:30:00 AM 7.2494 0.3836
4/16/2021 11:45:00 AM 7.2562 0.4
4/16/2021 12:00:00 PM 7.2709 0.3294
4/16/2021 12:15:00 PM 7.2808 0.3311
4/16/2021 12:30:00 PM 7.2934 0.3406
4/16/2021 12:45:00 PM 7.3057 0.3358
4/16/2021 1:00:00 PM 7.3161 0.3331
4/16/2021 1:15:00 PM 7.3214 0.3352
4/16/2021 1:30:00 PM 7.3325 0.3548
4/16/2021 1:45:00 PM 7.3451 0.3531
4/16/2021 2:00:00 PM 7.358 0.3373
4/16/2021 2:15:00 PM 7.3721 0.3204
4/16/2021 2:30:00 PM 7.3857 0.3497
4/16/2021 2:45:00 PM 7.3939 0.4236
4/16/2021 3:00:00 PM 7.4046 0.4518
4/16/2021 3:15:00 PM 7.4246 0.4417
4/16/2021 3:30:00 PM 7.4493 0.4464
4/16/2021 3:45:00 PM 7.469 0.4535
4/16/2021 4:00:00 PM 7.4887 0.4404
4/16/2021 4:15:00 PM 7.5076 0.4027
4/16/2021 4:30:00 PM 7.5229 0.4328
4/16/2021 4:45:00 PM 7.5253 0.4483
4/16/2021 5:00:00 PM 7.4407 0.606
4/16/2021 5:15:00 PM 7.5101 0.5993
4/16/2021 5:30:00 PM 7.5189 0.6261
4/16/2021 5:45:00 PM 7.5152 0.5
4/16/2021 6:00:00 PM 7.5154 0.5268
4/16/2021 6:15:00 PM 7.5148 0.5033
4/16/2021 6:30:00 PM 7.5063 0.4423
4/16/2021 6:45:00 PM 7.4989 0.4215
4/16/2021 7:00:00 PM 7.487 0.4266
4/16/2021 7:15:00 PM 7.4772 0.4742
4/16/2021 7:30:00 PM 7.4645 0.5394
4/16/2021 7:45:00 PM 7.4525 0.4963
4/16/2021 8:00:00 PM 7.4398 0.4989
4/16/2021 8:15:00 PM 7.4283 0.438
4/16/2021 8:30:00 PM 7.4195 0.4294
4/16/2021 8:45:00 PM 7.413 0.4
4/16/2021 9:00:00 PM 7.3864 0.4599
4/16/2021 9:15:00 PM 7.3729 0.4301
4/16/2021 9:30:00 PM 7.3592 0.4923
4/16/2021 9:45:00 PM 7.3484 0.5147
4/16/2021 10:00:00 PM 7.3391 0.5613
4/16/2021 10:15:00 PM 7.3296 0.5364
4/16/2021 10:30:00 PM 7.3151 0.5724
4/16/2021 10:45:00 PM 7.3086 0.5318
4/16/2021 11:00:00 PM 7.301 0.5685
4/16/2021 11:15:00 PM 7.293 0.629
4/16/2021 11:30:00 PM 7.2851 0.616
4/16/2021 11:45:00 PM 7.2786 0.6
4/17/2021 12:00:00 AM 7.2618 0.5432
4/17/2021 12:15:00 AM 7.2531 0.5376
4/17/2021 12:30:00 AM 7.2476 0.556
4/17/2021 12:45:00 AM 7.2363 0.547
4/17/2021 1:00:00 AM 7.2298 0.5371
4/17/2021 1:15:00 AM 7.2227 0.5371
4/17/2021 1:30:00 AM 7.2138 0.5359
4/17/2021 1:45:00 AM 7.2067 0.5297
4/17/2021 2:00:00 AM 7.1991 0.5085
4/17/2021 2:15:00 AM 7.1951 0.4931
4/17/2021 2:30:00 AM 7.1931 0.5249
4/17/2021 2:45:00 AM 7.1876 0.5999
4/17/2021 3:00:00 AM 7.1746 0.5458
4/17/2021 3:15:00 AM 7.1749 0.522
4/17/2021 3:30:00 AM 7.167 0.5209
4/17/2021 3:45:00 AM 7.1696 0.4676
4/17/2021 4:00:00 AM 7.1691 0.5343
4/17/2021 4:15:00 AM 7.1443 0.7674
4/17/2021 4:30:00 AM 7.1568 0.4483
4/17/2021 4:45:00 AM 7.1644 0.4468
4/17/2021 5:00:00 AM 7.1629 0.421
4/17/2021 5:15:00 AM 7.16 0.4375
4/17/2021 5:30:00 AM 7.1629 0.456
4/17/2021 5:45:00 AM 7.1666 0.4
4/17/2021 6:00:00 AM 7.1644 0.4559
4/17/2021 6:15:00 AM 7.1642 0.4586
4/17/2021 6:30:00 AM 7.162 0.4579
4/17/2021 6:45:00 AM 7.1646 0.4476
4/17/2021 7:00:00 AM 7.1644 0.4512
4/17/2021 7:15:00 AM 7.1645 0.4503
4/17/2021 7:30:00 AM 7.1647 0.4507
4/17/2021 7:45:00 AM 7.1647 0.4429
4/17/2021 8:00:00 AM 7.1648 0.4238
4/17/2021 8:15:00 AM 7.1684 0.4242
4/17/2021 8:30:00 AM 7.1693 0.4783
4/17/2021 8:45:00 AM 7.1694 0.5
4/17/2021 9:00:00 AM